<?xml version="1.0" encoding="UTF-8" standalone="no" ?>
<gpx xmlns="http://www.topografix.com/GPX/1/1" xmlns:xsi="http://www.w3.org/2001/XMLSchema-instance" xsi:schemaLocation="http://www.topografix.com/GPX/1/1 http://www.topografix.com/GPX/1/1/gpx.xsd" version="1.1" creator="VisuGPX - https://www.visugpx.com">
  <metadata>
    <name>Saillon, Passerelle à Farinet</name>
  </metadata>
  <trk>
    <name><![CDATA[Saillon, Passerelle à Farinet_1]]></name>
    <trkseg>
      <trkpt lat="46.17479" lon="7.19697">
        <ele>467.87</ele>
        <time>2020-06-24T14:00:00.000Z</time>
      </trkpt>
      <trkpt lat="46.1747" lon="7.19681">
        <ele>467.85</ele>
        <time>2020-06-24T14:00:08.149Z</time>
      </trkpt>
      <trkpt lat="46.17456" lon="7.19656">
        <ele>468.11</ele>
        <time>2020-06-24T14:00:22.687Z</time>
      </trkpt>
      <trkpt lat="46.17431" lon="7.1961">
        <ele>467.88</ele>
        <time>2020-06-24T14:00:44.409Z</time>
      </trkpt>
      <trkpt lat="46.17416" lon="7.19582">
        <ele>467.36</ele>
        <time>2020-06-24T14:00:50.075Z</time>
      </trkpt>
      <trkpt lat="46.17411" lon="7.1957">
        <ele>467.17</ele>
        <time>2020-06-24T14:00:52.360Z</time>
      </trkpt>
      <trkpt lat="46.17407" lon="7.19562">
        <ele>467.22</ele>
        <time>2020-06-24T14:00:56.631Z</time>
      </trkpt>
      <trkpt lat="46.17401" lon="7.19554">
        <ele>467.18</ele>
        <time>2020-06-24T14:01:01.060Z</time>
      </trkpt>
      <trkpt lat="46.17393" lon="7.19544">
        <ele>467.01</ele>
        <time>2020-06-24T14:01:03.661Z</time>
      </trkpt>
      <trkpt lat="46.17383" lon="7.19533">
        <ele>466.85</ele>
        <time>2020-06-24T14:01:06.883Z</time>
      </trkpt>
      <trkpt lat="46.17356" lon="7.19503">
        <ele>466.32</ele>
        <time>2020-06-24T14:01:15.309Z</time>
      </trkpt>
      <trkpt lat="46.17344" lon="7.1949">
        <ele>466.18</ele>
        <time>2020-06-24T14:01:19.329Z</time>
      </trkpt>
      <trkpt lat="46.17331" lon="7.19476">
        <ele>465.95</ele>
        <time>2020-06-24T14:01:23.409Z</time>
      </trkpt>
      <trkpt lat="46.17314" lon="7.19458">
        <ele>466.03</ele>
        <time>2020-06-24T14:01:36.144Z</time>
      </trkpt>
      <trkpt lat="46.17301" lon="7.19444">
        <ele>466.01</ele>
        <time>2020-06-24T14:01:45.425Z</time>
      </trkpt>
      <trkpt lat="46.17298" lon="7.1944">
        <ele>466.16</ele>
        <time>2020-06-24T14:01:49.014Z</time>
      </trkpt>
      <trkpt lat="46.17267" lon="7.19407">
        <ele>466.28</ele>
        <time>2020-06-24T14:02:12.132Z</time>
      </trkpt>
      <trkpt lat="46.17239" lon="7.19376">
        <ele>466.39</ele>
        <time>2020-06-24T14:02:33.311Z</time>
      </trkpt>
      <trkpt lat="46.17211" lon="7.19345">
        <ele>466.49</ele>
        <time>2020-06-24T14:02:54.433Z</time>
      </trkpt>
      <trkpt lat="46.17185" lon="7.19318">
        <ele>466.25</ele>
        <time>2020-06-24T14:03:03.232Z</time>
      </trkpt>
      <trkpt lat="46.17182" lon="7.19315">
        <ele>466.34</ele>
        <time>2020-06-24T14:03:05.981Z</time>
      </trkpt>
      <trkpt lat="46.1718" lon="7.19314">
        <ele>466.49</ele>
        <time>2020-06-24T14:03:08.481Z</time>
      </trkpt>
      <trkpt lat="46.17178" lon="7.19315">
        <ele>466.61</ele>
        <time>2020-06-24T14:03:10.738Z</time>
      </trkpt>
      <trkpt lat="46.17179" lon="7.1931">
        <ele>466.54</ele>
        <time>2020-06-24T14:03:11.589Z</time>
      </trkpt>
      <trkpt lat="46.17181" lon="7.19305">
        <ele>466.56</ele>
        <time>2020-06-24T14:03:14.032Z</time>
      </trkpt>
      <trkpt lat="46.17184" lon="7.19299">
        <ele>466.64</ele>
        <time>2020-06-24T14:03:17.519Z</time>
      </trkpt>
      <trkpt lat="46.1722" lon="7.19231">
        <ele>466.47</ele>
        <time>2020-06-24T14:03:50.629Z</time>
      </trkpt>
      <trkpt lat="46.1722" lon="7.19231">
        <ele>466.47</ele>
        <time>2020-06-24T14:03:50.629Z</time>
      </trkpt>
      <trkpt lat="46.17223" lon="7.19226">
        <ele>466.3</ele>
        <time>2020-06-24T14:03:51.524Z</time>
      </trkpt>
      <trkpt lat="46.17236" lon="7.192">
        <ele>466.28</ele>
        <time>2020-06-24T14:04:04.297Z</time>
      </trkpt>
      <trkpt lat="46.17262" lon="7.19152">
        <ele>466.42</ele>
        <time>2020-06-24T14:04:29.677Z</time>
      </trkpt>
      <trkpt lat="46.17276" lon="7.19126">
        <ele>466.39</ele>
        <time>2020-06-24T14:04:42.714Z</time>
      </trkpt>
      <trkpt lat="46.17288" lon="7.19103">
        <ele>466.48</ele>
        <time>2020-06-24T14:04:54.844Z</time>
      </trkpt>
      <trkpt lat="46.17299" lon="7.19083">
        <ele>466.3</ele>
        <time>2020-06-24T14:04:59.530Z</time>
      </trkpt>
      <trkpt lat="46.17307" lon="7.19066">
        <ele>466.46</ele>
        <time>2020-06-24T14:05:08.783Z</time>
      </trkpt>
      <trkpt lat="46.17312" lon="7.19056">
        <ele>466.35</ele>
        <time>2020-06-24T14:05:10.968Z</time>
      </trkpt>
      <trkpt lat="46.17319" lon="7.19043">
        <ele>466.38</ele>
        <time>2020-06-24T14:05:17.782Z</time>
      </trkpt>
      <trkpt lat="46.17326" lon="7.1903">
        <ele>466.4</ele>
        <time>2020-06-24T14:05:24.540Z</time>
      </trkpt>
      <trkpt lat="46.17343" lon="7.19">
        <ele>466.4</ele>
        <time>2020-06-24T14:05:40.193Z</time>
      </trkpt>
      <trkpt lat="46.17357" lon="7.18973">
        <ele>466.35</ele>
        <time>2020-06-24T14:05:53.381Z</time>
      </trkpt>
      <trkpt lat="46.1737" lon="7.1895">
        <ele>466.23</ele>
        <time>2020-06-24T14:06:04.386Z</time>
      </trkpt>
      <trkpt lat="46.17379" lon="7.18931">
        <ele>466.06</ele>
        <time>2020-06-24T14:06:08.582Z</time>
      </trkpt>
      <trkpt lat="46.17386" lon="7.1892">
        <ele>466.29</ele>
        <time>2020-06-24T14:06:16.157Z</time>
      </trkpt>
      <trkpt lat="46.17413" lon="7.1887">
        <ele>466.7</ele>
        <time>2020-06-24T14:06:44.156Z</time>
      </trkpt>
      <trkpt lat="46.17426" lon="7.18845">
        <ele>466.92</ele>
        <time>2020-06-24T14:06:58.076Z</time>
      </trkpt>
      <trkpt lat="46.17441" lon="7.18817">
        <ele>467.27</ele>
        <time>2020-06-24T14:07:14.521Z</time>
      </trkpt>
      <trkpt lat="46.17431" lon="7.18807">
        <ele>467.39</ele>
        <time>2020-06-24T14:07:22.319Z</time>
      </trkpt>
      <trkpt lat="46.1742" lon="7.18793">
        <ele>467.67</ele>
        <time>2020-06-24T14:07:32.682Z</time>
      </trkpt>
      <trkpt lat="46.1741" lon="7.1878">
        <ele>467.94</ele>
        <time>2020-06-24T14:07:42.295Z</time>
      </trkpt>
      <trkpt lat="46.1741" lon="7.18779">
        <ele>467.94</ele>
        <time>2020-06-24T14:07:42.698Z</time>
      </trkpt>
      <trkpt lat="46.17407" lon="7.18776">
        <ele>468.21</ele>
        <time>2020-06-24T14:07:47.113Z</time>
      </trkpt>
      <trkpt lat="46.17378" lon="7.18741">
        <ele>470.79</ele>
        <time>2020-06-24T14:08:30.888Z</time>
      </trkpt>
      <trkpt lat="46.17358" lon="7.18716">
        <ele>473.05</ele>
        <time>2020-06-24T14:09:06.016Z</time>
      </trkpt>
      <trkpt lat="46.17344" lon="7.187">
        <ele>474.54</ele>
        <time>2020-06-24T14:09:29.331Z</time>
      </trkpt>
      <trkpt lat="46.17337" lon="7.18692">
        <ele>475.35</ele>
        <time>2020-06-24T14:09:41.747Z</time>
      </trkpt>
      <trkpt lat="46.17334" lon="7.18686">
        <ele>475.68</ele>
        <time>2020-06-24T14:09:47.517Z</time>
      </trkpt>
      <trkpt lat="46.17334" lon="7.18686">
        <ele>476</ele>
        <time>2020-06-24T14:09:47.517Z</time>
      </trkpt>
      <trkpt lat="46.17308" lon="7.18695">
        <ele>480</ele>
        <time>2020-06-24T14:10:47.068Z</time>
      </trkpt>
      <trkpt lat="46.17273" lon="7.18639">
        <ele>481.5</ele>
        <time>2020-06-24T14:11:28.345Z</time>
      </trkpt>
      <trkpt lat="46.17285" lon="7.18614">
        <ele>487.72</ele>
        <time>2020-06-24T14:12:16.065Z</time>
      </trkpt>
      <trkpt lat="46.17281" lon="7.18609">
        <ele>488.14</ele>
        <time>2020-06-24T14:12:22.745Z</time>
      </trkpt>
      <trkpt lat="46.17278" lon="7.18606">
        <ele>488.57</ele>
        <time>2020-06-24T14:12:29.443Z</time>
      </trkpt>
      <trkpt lat="46.1727" lon="7.18598">
        <ele>489.63</ele>
        <time>2020-06-24T14:12:45.606Z</time>
      </trkpt>
      <trkpt lat="46.17261" lon="7.18589">
        <ele>490.95</ele>
        <time>2020-06-24T14:13:06.371Z</time>
      </trkpt>
      <trkpt lat="46.17254" lon="7.18582">
        <ele>492.17</ele>
        <time>2020-06-24T14:13:25.522Z</time>
      </trkpt>
      <trkpt lat="46.17249" lon="7.18575">
        <ele>493.4</ele>
        <time>2020-06-24T14:13:41.185Z</time>
      </trkpt>
      <trkpt lat="46.17245" lon="7.18569">
        <ele>494.34</ele>
        <time>2020-06-24T14:13:54.158Z</time>
      </trkpt>
      <trkpt lat="46.1724" lon="7.18555">
        <ele>495.98</ele>
        <time>2020-06-24T14:14:18.693Z</time>
      </trkpt>
      <trkpt lat="46.17235" lon="7.1854">
        <ele>498.15</ele>
        <time>2020-06-24T14:14:44.622Z</time>
      </trkpt>
      <trkpt lat="46.17233" lon="7.18533">
        <ele>498.91</ele>
        <time>2020-06-24T14:14:56.417Z</time>
      </trkpt>
      <trkpt lat="46.17231" lon="7.18521">
        <ele>500.14</ele>
        <time>2020-06-24T14:15:15.641Z</time>
      </trkpt>
      <trkpt lat="46.17229" lon="7.18514">
        <ele>500.88</ele>
        <time>2020-06-24T14:15:27.436Z</time>
      </trkpt>
      <trkpt lat="46.17228" lon="7.18507">
        <ele>501.28</ele>
        <time>2020-06-24T14:15:33.759Z</time>
      </trkpt>
      <trkpt lat="46.17228" lon="7.18503">
        <ele>501.57</ele>
        <time>2020-06-24T14:15:38.161Z</time>
      </trkpt>
      <trkpt lat="46.17227" lon="7.18493">
        <ele>502.23</ele>
        <time>2020-06-24T14:15:48.215Z</time>
      </trkpt>
      <trkpt lat="46.17225" lon="7.18486">
        <ele>502.6</ele>
        <time>2020-06-24T14:15:54.395Z</time>
      </trkpt>
      <trkpt lat="46.17221" lon="7.18477">
        <ele>503.42</ele>
        <time>2020-06-24T14:16:06.936Z</time>
      </trkpt>
      <trkpt lat="46.17219" lon="7.18471">
        <ele>504.1</ele>
        <time>2020-06-24T14:16:17.307Z</time>
      </trkpt>
      <trkpt lat="46.17219" lon="7.1847">
        <ele>504.1</ele>
        <time>2020-06-24T14:16:17.711Z</time>
      </trkpt>
      <trkpt lat="46.17214" lon="7.1846">
        <ele>504.77</ele>
        <time>2020-06-24T14:16:28.415Z</time>
      </trkpt>
      <trkpt lat="46.17206" lon="7.18441">
        <ele>506.46</ele>
        <time>2020-06-24T14:16:54.217Z</time>
      </trkpt>
      <trkpt lat="46.17191" lon="7.18407">
        <ele>509.26</ele>
        <time>2020-06-24T14:17:36.674Z</time>
      </trkpt>
      <trkpt lat="46.17186" lon="7.18399">
        <ele>509.81</ele>
        <time>2020-06-24T14:17:45.683Z</time>
      </trkpt>
      <trkpt lat="46.17184" lon="7.18392">
        <ele>510.14</ele>
        <time>2020-06-24T14:17:51.524Z</time>
      </trkpt>
      <trkpt lat="46.17181" lon="7.18386">
        <ele>510.46</ele>
        <time>2020-06-24T14:17:57.214Z</time>
      </trkpt>
      <trkpt lat="46.17177" lon="7.1838">
        <ele>510.78</ele>
        <time>2020-06-24T14:18:03.313Z</time>
      </trkpt>
      <trkpt lat="46.17169" lon="7.18364">
        <ele>511.57</ele>
        <time>2020-06-24T14:18:17.999Z</time>
      </trkpt>
      <trkpt lat="46.17164" lon="7.18357">
        <ele>512.22</ele>
        <time>2020-06-24T14:18:27.916Z</time>
      </trkpt>
      <trkpt lat="46.17161" lon="7.18354">
        <ele>512.7</ele>
        <time>2020-06-24T14:18:35.905Z</time>
      </trkpt>
      <trkpt lat="46.17159" lon="7.18351">
        <ele>513.22</ele>
        <time>2020-06-24T14:18:42.391Z</time>
      </trkpt>
      <trkpt lat="46.17155" lon="7.18342">
        <ele>514.11</ele>
        <time>2020-06-24T14:18:56.370Z</time>
      </trkpt>
      <trkpt lat="46.17148" lon="7.18329">
        <ele>515.31</ele>
        <time>2020-06-24T14:19:14.591Z</time>
      </trkpt>
      <trkpt lat="46.17138" lon="7.18314">
        <ele>516.52</ele>
        <time>2020-06-24T14:19:33.494Z</time>
      </trkpt>
      <trkpt lat="46.17133" lon="7.18303">
        <ele>517.16</ele>
        <time>2020-06-24T14:19:44.205Z</time>
      </trkpt>
      <trkpt lat="46.17124" lon="7.18286">
        <ele>518.58</ele>
        <time>2020-06-24T14:20:05.798Z</time>
      </trkpt>
      <trkpt lat="46.17114" lon="7.18269">
        <ele>519.93</ele>
        <time>2020-06-24T14:20:26.660Z</time>
      </trkpt>
      <trkpt lat="46.17108" lon="7.1826">
        <ele>520.31</ele>
        <time>2020-06-24T14:20:35.101Z</time>
      </trkpt>
      <trkpt lat="46.17105" lon="7.18255">
        <ele>520.45</ele>
        <time>2020-06-24T14:20:38.811Z</time>
      </trkpt>
      <trkpt lat="46.17102" lon="7.18248">
        <ele>520.61</ele>
        <time>2020-06-24T14:20:43.285Z</time>
      </trkpt>
      <trkpt lat="46.171" lon="7.18242">
        <ele>520.82</ele>
        <time>2020-06-24T14:20:47.854Z</time>
      </trkpt>
      <trkpt lat="46.171" lon="7.18241">
        <ele>521.13</ele>
        <time>2020-06-24T14:20:49.411Z</time>
      </trkpt>
      <trkpt lat="46.17099" lon="7.18235">
        <ele>521.23</ele>
        <time>2020-06-24T14:20:52.583Z</time>
      </trkpt>
      <trkpt lat="46.17098" lon="7.18227">
        <ele>521.33</ele>
        <time>2020-06-24T14:20:56.504Z</time>
      </trkpt>
      <trkpt lat="46.17098" lon="7.18222">
        <ele>521.33</ele>
        <time>2020-06-24T14:20:58.523Z</time>
      </trkpt>
      <trkpt lat="46.17098" lon="7.18215">
        <ele>521.35</ele>
        <time>2020-06-24T14:21:01.461Z</time>
      </trkpt>
      <trkpt lat="46.171" lon="7.18205">
        <ele>522.11</ele>
        <time>2020-06-24T14:21:13.003Z</time>
      </trkpt>
      <trkpt lat="46.17102" lon="7.18196">
        <ele>522.79</ele>
        <time>2020-06-24T14:21:23.320Z</time>
      </trkpt>
      <trkpt lat="46.17105" lon="7.18184">
        <ele>523.99</ele>
        <time>2020-06-24T14:21:43.192Z</time>
      </trkpt>
      <trkpt lat="46.17107" lon="7.18172">
        <ele>524.87</ele>
        <time>2020-06-24T14:21:56.537Z</time>
      </trkpt>
      <trkpt lat="46.17111" lon="7.18168">
        <ele>525.55</ele>
        <time>2020-06-24T14:22:07.481Z</time>
      </trkpt>
      <trkpt lat="46.17123" lon="7.18158">
        <ele>528.52</ele>
        <time>2020-06-24T14:22:38.644Z</time>
      </trkpt>
      <trkpt lat="46.17131" lon="7.18152">
        <ele>531.01</ele>
        <time>2020-06-24T14:22:58.920Z</time>
      </trkpt>
      <trkpt lat="46.17135" lon="7.1815">
        <ele>531.97</ele>
        <time>2020-06-24T14:23:08.441Z</time>
      </trkpt>
      <trkpt lat="46.17138" lon="7.1815">
        <ele>532.49</ele>
        <time>2020-06-24T14:23:15.188Z</time>
      </trkpt>
      <trkpt lat="46.17143" lon="7.18151">
        <ele>533.52</ele>
        <time>2020-06-24T14:23:26.542Z</time>
      </trkpt>
      <trkpt lat="46.17149" lon="7.18152">
        <ele>534.82</ele>
        <time>2020-06-24T14:23:40.127Z</time>
      </trkpt>
      <trkpt lat="46.17155" lon="7.18153">
        <ele>536.11</ele>
        <time>2020-06-24T14:23:53.711Z</time>
      </trkpt>
      <trkpt lat="46.17157" lon="7.18154">
        <ele>536.69</ele>
        <time>2020-06-24T14:23:58.472Z</time>
      </trkpt>
      <trkpt lat="46.17156" lon="7.18154">
        <ele>536.69</ele>
        <time>2020-06-24T14:23:59.055Z</time>
      </trkpt>
      <trkpt lat="46.17165" lon="7.18159">
        <ele>537.27</ele>
        <time>2020-06-24T14:24:09.588Z</time>
      </trkpt>
      <trkpt lat="46.17171" lon="7.18162">
        <ele>538.9</ele>
        <time>2020-06-24T14:24:23.869Z</time>
      </trkpt>
      <trkpt lat="46.17188" lon="7.18173">
        <ele>542.19</ele>
        <time>2020-06-24T14:25:05.769Z</time>
      </trkpt>
      <trkpt lat="46.17199" lon="7.1818">
        <ele>543.95</ele>
        <time>2020-06-24T14:25:32.806Z</time>
      </trkpt>
      <trkpt lat="46.17204" lon="7.18184">
        <ele>545.09</ele>
        <time>2020-06-24T14:25:45.663Z</time>
      </trkpt>
      <trkpt lat="46.17217" lon="7.18198">
        <ele>548.7</ele>
        <time>2020-06-24T14:26:22.138Z</time>
      </trkpt>
      <trkpt lat="46.17228" lon="7.18208">
        <ele>550.92</ele>
        <time>2020-06-24T14:26:51.374Z</time>
      </trkpt>
      <trkpt lat="46.17239" lon="7.18218">
        <ele>553.21</ele>
        <time>2020-06-24T14:27:20.610Z</time>
      </trkpt>
      <trkpt lat="46.17243" lon="7.1822">
        <ele>554</ele>
        <time>2020-06-24T14:27:30.131Z</time>
      </trkpt>
      <trkpt lat="46.17245" lon="7.18219">
        <ele>554.06</ele>
        <time>2020-06-24T14:27:31.798Z</time>
      </trkpt>
      <trkpt lat="46.17248" lon="7.18218">
        <ele>554.77</ele>
        <time>2020-06-24T14:27:38.723Z</time>
      </trkpt>
      <trkpt lat="46.17259" lon="7.18209">
        <ele>557.06</ele>
        <time>2020-06-24T14:28:07.160Z</time>
      </trkpt>
      <trkpt lat="46.17271" lon="7.18198">
        <ele>560.63</ele>
        <time>2020-06-24T14:28:39.129Z</time>
      </trkpt>
      <trkpt lat="46.17275" lon="7.18193">
        <ele>562.02</ele>
        <time>2020-06-24T14:28:51.029Z</time>
      </trkpt>
      <trkpt lat="46.1728" lon="7.18187">
        <ele>562.67</ele>
        <time>2020-06-24T14:29:00.886Z</time>
      </trkpt>
      <trkpt lat="46.17285" lon="7.18194">
        <ele>563.66</ele>
        <time>2020-06-24T14:29:16.549Z</time>
      </trkpt>
      <trkpt lat="46.17292" lon="7.18203">
        <ele>564.29</ele>
        <time>2020-06-24T14:29:27.321Z</time>
      </trkpt>
      <trkpt lat="46.173" lon="7.18216">
        <ele>565.14</ele>
        <time>2020-06-24T14:29:41.514Z</time>
      </trkpt>
      <trkpt lat="46.17308" lon="7.18233">
        <ele>566.51</ele>
        <time>2020-06-24T14:30:02.338Z</time>
      </trkpt>
      <trkpt lat="46.17315" lon="7.18247">
        <ele>567.61</ele>
        <time>2020-06-24T14:30:19.158Z</time>
      </trkpt>
      <trkpt lat="46.17324" lon="7.18268">
        <ele>569.64</ele>
        <time>2020-06-24T14:30:50.871Z</time>
      </trkpt>
      <trkpt lat="46.17329" lon="7.1828">
        <ele>572.11</ele>
        <time>2020-06-24T14:31:12.684Z</time>
      </trkpt>
      <trkpt lat="46.17329" lon="7.18279">
        <ele>572.11</ele>
        <time>2020-06-24T14:31:13.088Z</time>
      </trkpt>
      <trkpt lat="46.17345" lon="7.18314">
        <ele>574.57</ele>
        <time>2020-06-24T14:31:51.415Z</time>
      </trkpt>
      <trkpt lat="46.17351" lon="7.18329">
        <ele>575.78</ele>
        <time>2020-06-24T14:32:09.761Z</time>
      </trkpt>
      <trkpt lat="46.17355" lon="7.18337">
        <ele>576.42</ele>
        <time>2020-06-24T14:32:19.521Z</time>
      </trkpt>
      <trkpt lat="46.1736" lon="7.18344">
        <ele>576.67</ele>
        <time>2020-06-24T14:32:25.571Z</time>
      </trkpt>
      <trkpt lat="46.17365" lon="7.18351">
        <ele>576.96</ele>
        <time>2020-06-24T14:32:32.136Z</time>
      </trkpt>
      <trkpt lat="46.17371" lon="7.18356">
        <ele>576.94</ele>
        <time>2020-06-24T14:32:36.004Z</time>
      </trkpt>
      <trkpt lat="46.17374" lon="7.18349">
        <ele>577.61</ele>
        <time>2020-06-24T14:32:46.430Z</time>
      </trkpt>
      <trkpt lat="46.17374" lon="7.18345">
        <ele>577.97</ele>
        <time>2020-06-24T14:32:52.363Z</time>
      </trkpt>
      <trkpt lat="46.17374" lon="7.1834">
        <ele>578.77</ele>
        <time>2020-06-24T14:33:00.151Z</time>
      </trkpt>
      <trkpt lat="46.17372" lon="7.18332">
        <ele>579.76</ele>
        <time>2020-06-24T14:33:13.398Z</time>
      </trkpt>
      <trkpt lat="46.17369" lon="7.18321">
        <ele>581.51</ele>
        <time>2020-06-24T14:33:31.812Z</time>
      </trkpt>
      <trkpt lat="46.17367" lon="7.1831">
        <ele>583.55</ele>
        <time>2020-06-24T14:33:49.525Z</time>
      </trkpt>
      <trkpt lat="46.17367" lon="7.18306">
        <ele>584.4</ele>
        <time>2020-06-24T14:33:55.755Z</time>
      </trkpt>
      <trkpt lat="46.17368" lon="7.18302">
        <ele>585.22</ele>
        <time>2020-06-24T14:34:02.379Z</time>
      </trkpt>
      <trkpt lat="46.17369" lon="7.18297">
        <ele>586.52</ele>
        <time>2020-06-24T14:34:10.485Z</time>
      </trkpt>
      <trkpt lat="46.1737" lon="7.18294">
        <ele>586.81</ele>
        <time>2020-06-24T14:34:15.154Z</time>
      </trkpt>
      <trkpt lat="46.17373" lon="7.18287">
        <ele>588.57</ele>
        <time>2020-06-24T14:34:27.976Z</time>
      </trkpt>
      <trkpt lat="46.17376" lon="7.18282">
        <ele>589.32</ele>
        <time>2020-06-24T14:34:38.280Z</time>
      </trkpt>
      <trkpt lat="46.17377" lon="7.18278">
        <ele>589.73</ele>
        <time>2020-06-24T14:34:44.904Z</time>
      </trkpt>
      <trkpt lat="46.17378" lon="7.18273">
        <ele>590.27</ele>
        <time>2020-06-24T14:34:53.010Z</time>
      </trkpt>
      <trkpt lat="46.1738" lon="7.18269">
        <ele>590.74</ele>
        <time>2020-06-24T14:35:00.695Z</time>
      </trkpt>
      <trkpt lat="46.17381" lon="7.18268">
        <ele>590.73</ele>
        <time>2020-06-24T14:35:01.025Z</time>
      </trkpt>
      <trkpt lat="46.17383" lon="7.18267">
        <ele>590.94</ele>
        <time>2020-06-24T14:35:04.211Z</time>
      </trkpt>
      <trkpt lat="46.17385" lon="7.18267">
        <ele>591.41</ele>
        <time>2020-06-24T14:35:08.709Z</time>
      </trkpt>
      <trkpt lat="46.17388" lon="7.18269">
        <ele>591.55</ele>
        <time>2020-06-24T14:35:11.858Z</time>
      </trkpt>
      <trkpt lat="46.17394" lon="7.18274">
        <ele>592.68</ele>
        <time>2020-06-24T14:35:27.439Z</time>
      </trkpt>
      <trkpt lat="46.17413" lon="7.18291">
        <ele>597.07</ele>
        <time>2020-06-24T14:36:17.712Z</time>
      </trkpt>
      <trkpt lat="46.17416" lon="7.18291">
        <ele>597.8</ele>
        <time>2020-06-24T14:36:24.460Z</time>
      </trkpt>
      <trkpt lat="46.17418" lon="7.18291">
        <ele>598.04</ele>
        <time>2020-06-24T14:36:28.227Z</time>
      </trkpt>
      <trkpt lat="46.17422" lon="7.18288">
        <ele>598.87</ele>
        <time>2020-06-24T14:36:38.365Z</time>
      </trkpt>
      <trkpt lat="46.17431" lon="7.18279">
        <ele>600.58</ele>
        <time>2020-06-24T14:37:02.987Z</time>
      </trkpt>
      <trkpt lat="46.17439" lon="7.18273">
        <ele>601.64</ele>
        <time>2020-06-24T14:37:19.484Z</time>
      </trkpt>
      <trkpt lat="46.17443" lon="7.18284">
        <ele>602.69</ele>
        <time>2020-06-24T14:37:36.100Z</time>
      </trkpt>
      <trkpt lat="46.17449" lon="7.18296">
        <ele>603.82</ele>
        <time>2020-06-24T14:37:53.367Z</time>
      </trkpt>
      <trkpt lat="46.17452" lon="7.183">
        <ele>604.43</ele>
        <time>2020-06-24T14:38:02.551Z</time>
      </trkpt>
      <trkpt lat="46.17454" lon="7.18303">
        <ele>604.71</ele>
        <time>2020-06-24T14:38:06.804Z</time>
      </trkpt>
      <trkpt lat="46.17456" lon="7.18303">
        <ele>604.68</ele>
        <time>2020-06-24T14:38:07.302Z</time>
      </trkpt>
      <trkpt lat="46.17461" lon="7.18317">
        <ele>605.39</ele>
        <time>2020-06-24T14:38:19.645Z</time>
      </trkpt>
      <trkpt lat="46.17468" lon="7.18334">
        <ele>606.83</ele>
        <time>2020-06-24T14:38:41.509Z</time>
      </trkpt>
      <trkpt lat="46.17474" lon="7.18351">
        <ele>608.4</ele>
        <time>2020-06-24T14:39:06.046Z</time>
      </trkpt>
      <trkpt lat="46.17478" lon="7.1836">
        <ele>608.83</ele>
        <time>2020-06-24T14:39:14.018Z</time>
      </trkpt>
      <trkpt lat="46.17478" lon="7.18359">
        <ele>608.83</ele>
        <time>2020-06-24T14:39:14.422Z</time>
      </trkpt>
      <trkpt lat="46.17478" lon="7.18361">
        <ele>609.27</ele>
        <time>2020-06-24T14:39:17.537Z</time>
      </trkpt>
      <trkpt lat="46.17481" lon="7.18368">
        <ele>610.03</ele>
        <time>2020-06-24T14:39:30.338Z</time>
      </trkpt>
      <trkpt lat="46.17484" lon="7.18371">
        <ele>610.27</ele>
        <time>2020-06-24T14:39:34.487Z</time>
      </trkpt>
      <trkpt lat="46.17488" lon="7.18375">
        <ele>610.94</ele>
        <time>2020-06-24T14:39:45.431Z</time>
      </trkpt>
      <trkpt lat="46.17494" lon="7.1838">
        <ele>611.83</ele>
        <time>2020-06-24T14:39:59.970Z</time>
      </trkpt>
      <trkpt lat="46.17514" lon="7.18389">
        <ele>614.99</ele>
        <time>2020-06-24T14:40:47.088Z</time>
      </trkpt>
      <trkpt lat="46.17525" lon="7.18395">
        <ele>617.83</ele>
        <time>2020-06-24T14:41:13.535Z</time>
      </trkpt>
      <trkpt lat="46.17532" lon="7.18401">
        <ele>619.72</ele>
        <time>2020-06-24T14:41:31.844Z</time>
      </trkpt>
      <trkpt lat="46.17539" lon="7.18409">
        <ele>621.66</ele>
        <time>2020-06-24T14:41:51.922Z</time>
      </trkpt>
      <trkpt lat="46.17545" lon="7.18417">
        <ele>622.78</ele>
        <time>2020-06-24T14:42:10.290Z</time>
      </trkpt>
      <trkpt lat="46.17549" lon="7.18423">
        <ele>623.32</ele>
        <time>2020-06-24T14:42:18.525Z</time>
      </trkpt>
      <trkpt lat="46.17558" lon="7.18425">
        <ele>625.18</ele>
        <time>2020-06-24T14:42:39.006Z</time>
      </trkpt>
      <trkpt lat="46.17568" lon="7.18427">
        <ele>628.46</ele>
        <time>2020-06-24T14:43:01.713Z</time>
      </trkpt>
      <trkpt lat="46.1762" lon="7.18433">
        <ele>645.54</ele>
        <time>2020-06-24T14:44:59.045Z</time>
      </trkpt>
      <trkpt lat="46.17636" lon="7.18436">
        <ele>650.77</ele>
        <time>2020-06-24T14:45:35.335Z</time>
      </trkpt>
      <trkpt lat="46.17644" lon="7.18432">
        <ele>651.4</ele>
        <time>2020-06-24T14:45:45.611Z</time>
      </trkpt>
      <trkpt lat="46.17652" lon="7.18422">
        <ele>652.18</ele>
        <time>2020-06-24T14:45:58.384Z</time>
      </trkpt>
      <trkpt lat="46.17652" lon="7.18422">
        <ele>652.18</ele>
        <time>2020-06-24T14:45:58.384Z</time>
      </trkpt>
      <trkpt lat="46.17653" lon="7.18421">
        <ele>652.95</ele>
        <time>2020-06-24T14:46:01.120Z</time>
      </trkpt>
      <trkpt lat="46.17656" lon="7.18419">
        <ele>654.11</ele>
        <time>2020-06-24T14:46:08.552Z</time>
      </trkpt>
      <trkpt lat="46.1766" lon="7.18416">
        <ele>655.21</ele>
        <time>2020-06-24T14:46:18.690Z</time>
      </trkpt>
      <trkpt lat="46.17668" lon="7.18412">
        <ele>656.96</ele>
        <time>2020-06-24T14:46:37.731Z</time>
      </trkpt>
      <trkpt lat="46.17678" lon="7.1841">
        <ele>659.35</ele>
        <time>2020-06-24T14:47:00.438Z</time>
      </trkpt>
      <trkpt lat="46.17684" lon="7.18407">
        <ele>662.09</ele>
        <time>2020-06-24T14:47:14.719Z</time>
      </trkpt>
      <trkpt lat="46.17698" lon="7.18399">
        <ele>667.42</ele>
        <time>2020-06-24T14:47:48.584Z</time>
      </trkpt>
      <trkpt lat="46.17703" lon="7.18397">
        <ele>669.07</ele>
        <time>2020-06-24T14:48:00.253Z</time>
      </trkpt>
      <trkpt lat="46.17713" lon="7.18394">
        <ele>671.92</ele>
        <time>2020-06-24T14:48:23.226Z</time>
      </trkpt>
      <trkpt lat="46.17715" lon="7.18393">
        <ele>672.17</ele>
        <time>2020-06-24T14:48:27.123Z</time>
      </trkpt>
      <trkpt lat="46.17717" lon="7.18395">
        <ele>672.17</ele>
        <time>2020-06-24T14:48:28.542Z</time>
      </trkpt>
      <trkpt lat="46.17718" lon="7.18397">
        <ele>672.35</ele>
        <time>2020-06-24T14:48:31.276Z</time>
      </trkpt>
      <trkpt lat="46.1772" lon="7.18395">
        <ele>674.05</ele>
        <time>2020-06-24T14:48:36.747Z</time>
      </trkpt>
      <trkpt lat="46.17723" lon="7.1839">
        <ele>675.73</ele>
        <time>2020-06-24T14:48:47.051Z</time>
      </trkpt>
      <trkpt lat="46.17727" lon="7.18382">
        <ele>680.47</ele>
        <time>2020-06-24T14:49:02.419Z</time>
      </trkpt>
      <trkpt lat="46.1774" lon="7.18363">
        <ele>685.31</ele>
        <time>2020-06-24T14:49:44.020Z</time>
      </trkpt>
      <trkpt lat="46.17743" lon="7.18357">
        <ele>686.87</ele>
        <time>2020-06-24T14:49:55.546Z</time>
      </trkpt>
      <trkpt lat="46.17746" lon="7.18352">
        <ele>689.56</ele>
        <time>2020-06-24T14:50:05.850Z</time>
      </trkpt>
      <trkpt lat="46.17749" lon="7.18349">
        <ele>688.86</ele>
        <time>2020-06-24T14:50:06.453Z</time>
      </trkpt>
      <trkpt lat="46.1775" lon="7.18346">
        <ele>689.37</ele>
        <time>2020-06-24T14:50:11.639Z</time>
      </trkpt>
      <trkpt lat="46.17749" lon="7.18342">
        <ele>690.09</ele>
        <time>2020-06-24T14:50:18.262Z</time>
      </trkpt>
      <trkpt lat="46.17749" lon="7.1834">
        <ele>690.36</ele>
        <time>2020-06-24T14:50:21.377Z</time>
      </trkpt>
      <trkpt lat="46.1775" lon="7.18331">
        <ele>690.62</ele>
        <time>2020-06-24T14:50:27.288Z</time>
      </trkpt>
      <trkpt lat="46.1774" lon="7.1832">
        <ele>691.69</ele>
        <time>2020-06-24T14:50:43.936Z</time>
      </trkpt>
      <trkpt lat="46.17725" lon="7.183">
        <ele>693.11</ele>
        <time>2020-06-24T14:51:07.811Z</time>
      </trkpt>
      <trkpt lat="46.17717" lon="7.18287">
        <ele>693.86</ele>
        <time>2020-06-24T14:51:21.165Z</time>
      </trkpt>
      <trkpt lat="46.17703" lon="7.18263">
        <ele>694.59</ele>
        <time>2020-06-24T14:51:39.468Z</time>
      </trkpt>
      <trkpt lat="46.17702" lon="7.18259">
        <ele>694.59</ele>
        <time>2020-06-24T14:51:41.185Z</time>
      </trkpt>
      <trkpt lat="46.17702" lon="7.18255">
        <ele>694.57</ele>
        <time>2020-06-24T14:51:42.640Z</time>
      </trkpt>
      <trkpt lat="46.17702" lon="7.18254">
        <ele>694.57</ele>
        <time>2020-06-24T14:51:43.043Z</time>
      </trkpt>
      <trkpt lat="46.17702" lon="7.1825">
        <ele>694.59</ele>
        <time>2020-06-24T14:51:44.773Z</time>
      </trkpt>
      <trkpt lat="46.17703" lon="7.18245">
        <ele>694.78</ele>
        <time>2020-06-24T14:51:48.514Z</time>
      </trkpt>
      <trkpt lat="46.17705" lon="7.18241">
        <ele>694.74</ele>
        <time>2020-06-24T14:51:49.401Z</time>
      </trkpt>
      <trkpt lat="46.1771" lon="7.18235">
        <ele>694.8</ele>
        <time>2020-06-24T14:51:53.542Z</time>
      </trkpt>
      <trkpt lat="46.17732" lon="7.1821">
        <ele>695.84</ele>
        <time>2020-06-24T14:52:18.287Z</time>
      </trkpt>
      <trkpt lat="46.1774" lon="7.182">
        <ele>696.88</ele>
        <time>2020-06-24T14:52:34.069Z</time>
      </trkpt>
      <trkpt lat="46.17743" lon="7.18195">
        <ele>697.67</ele>
        <time>2020-06-24T14:52:44.373Z</time>
      </trkpt>
      <trkpt lat="46.17746" lon="7.18187">
        <ele>698.2</ele>
        <time>2020-06-24T14:52:52.647Z</time>
      </trkpt>
      <trkpt lat="46.17749" lon="7.18177">
        <ele>699.06</ele>
        <time>2020-06-24T14:53:05.892Z</time>
      </trkpt>
      <trkpt lat="46.17749" lon="7.18172">
        <ele>699.35</ele>
        <time>2020-06-24T14:53:10.425Z</time>
      </trkpt>
      <trkpt lat="46.17749" lon="7.18166">
        <ele>699.83</ele>
        <time>2020-06-24T14:53:17.849Z</time>
      </trkpt>
      <trkpt lat="46.17749" lon="7.18159">
        <ele>700.43</ele>
        <time>2020-06-24T14:53:27.417Z</time>
      </trkpt>
      <trkpt lat="46.17748" lon="7.18153">
        <ele>701.02</ele>
        <time>2020-06-24T14:53:37.029Z</time>
      </trkpt>
      <trkpt lat="46.17744" lon="7.18141">
        <ele>701.69</ele>
        <time>2020-06-24T14:53:48.070Z</time>
      </trkpt>
      <trkpt lat="46.17738" lon="7.18124">
        <ele>703.66</ele>
        <time>2020-06-24T14:54:17.788Z</time>
      </trkpt>
      <trkpt lat="46.17734" lon="7.18116">
        <ele>704.36</ele>
        <time>2020-06-24T14:54:28.402Z</time>
      </trkpt>
      <trkpt lat="46.1773" lon="7.18109">
        <ele>704.78</ele>
        <time>2020-06-24T14:54:35.604Z</time>
      </trkpt>
      <trkpt lat="46.17722" lon="7.181">
        <ele>706.03</ele>
        <time>2020-06-24T14:54:55.490Z</time>
      </trkpt>
      <trkpt lat="46.1771" lon="7.18087">
        <ele>707.49</ele>
        <time>2020-06-24T14:55:17.661Z</time>
      </trkpt>
      <trkpt lat="46.17701" lon="7.18075">
        <ele>708.84</ele>
        <time>2020-06-24T14:55:38.288Z</time>
      </trkpt>
      <trkpt lat="46.17692" lon="7.18063">
        <ele>710.33</ele>
        <time>2020-06-24T14:56:01.827Z</time>
      </trkpt>
      <trkpt lat="46.17682" lon="7.18047">
        <ele>711.84</ele>
        <time>2020-06-24T14:56:24.721Z</time>
      </trkpt>
      <trkpt lat="46.17679" lon="7.18042">
        <ele>713.08</ele>
        <time>2020-06-24T14:56:35.025Z</time>
      </trkpt>
      <trkpt lat="46.17674" lon="7.18036">
        <ele>713.77</ele>
        <time>2020-06-24T14:56:45.511Z</time>
      </trkpt>
      <trkpt lat="46.17668" lon="7.1803">
        <ele>713.98</ele>
        <time>2020-06-24T14:56:51.290Z</time>
      </trkpt>
      <trkpt lat="46.17664" lon="7.18028">
        <ele>714.65</ele>
        <time>2020-06-24T14:57:00.811Z</time>
      </trkpt>
      <trkpt lat="46.1766" lon="7.18025">
        <ele>715.17</ele>
        <time>2020-06-24T14:57:08.849Z</time>
      </trkpt>
      <trkpt lat="46.17658" lon="7.18022">
        <ele>715.58</ele>
        <time>2020-06-24T14:57:15.335Z</time>
      </trkpt>
      <trkpt lat="46.17655" lon="7.18014">
        <ele>716.09</ele>
        <time>2020-06-24T14:57:23.393Z</time>
      </trkpt>
      <trkpt lat="46.17658" lon="7.18014">
        <ele>716.23</ele>
        <time>2020-06-24T14:57:26.387Z</time>
      </trkpt>
      <trkpt lat="46.17661" lon="7.18014">
        <ele>716.62</ele>
        <time>2020-06-24T14:57:32.815Z</time>
      </trkpt>
      <trkpt lat="46.17665" lon="7.18016">
        <ele>717.11</ele>
        <time>2020-06-24T14:57:40.399Z</time>
      </trkpt>
      <trkpt lat="46.17669" lon="7.18018">
        <ele>717.88</ele>
        <time>2020-06-24T14:57:49.920Z</time>
      </trkpt>
      <trkpt lat="46.17675" lon="7.18023">
        <ele>718.34</ele>
        <time>2020-06-24T14:57:57.833Z</time>
      </trkpt>
      <trkpt lat="46.17682" lon="7.18029">
        <ele>719.23</ele>
        <time>2020-06-24T14:58:11.413Z</time>
      </trkpt>
      <trkpt lat="46.17692" lon="7.18035">
        <ele>720.37</ele>
        <time>2020-06-24T14:58:28.724Z</time>
      </trkpt>
      <trkpt lat="46.17703" lon="7.18042">
        <ele>723</ele>
        <time>2020-06-24T14:58:55.760Z</time>
      </trkpt>
      <trkpt lat="46.1771" lon="7.18046">
        <ele>722.1</ele>
        <time>2020-06-24T14:58:57.006Z</time>
      </trkpt>
      <trkpt lat="46.17716" lon="7.18049">
        <ele>722.91</ele>
        <time>2020-06-24T14:59:10.171Z</time>
      </trkpt>
      <trkpt lat="46.17729" lon="7.1806">
        <ele>724.6</ele>
        <time>2020-06-24T14:59:36.092Z</time>
      </trkpt>
      <trkpt lat="46.17729" lon="7.1806">
        <ele>725.85</ele>
        <time>2020-06-24T14:59:36.092Z</time>
      </trkpt>
      <trkpt lat="46.17728" lon="7.1806">
        <ele>723.76</ele>
        <time>2020-06-24T14:59:36.257Z</time>
      </trkpt>
      <trkpt lat="46.17729" lon="7.1806">
        <ele>724.6</ele>
        <time>2020-06-24T14:59:38.507Z</time>
      </trkpt>
      <trkpt lat="46.17739" lon="7.18069">
        <ele>727.1</ele>
        <time>2020-06-24T15:00:05.009Z</time>
      </trkpt>
      <trkpt lat="46.17746" lon="7.18074">
        <ele>728.36</ele>
        <time>2020-06-24T15:00:22.574Z</time>
      </trkpt>
      <trkpt lat="46.17751" lon="7.18078">
        <ele>727.44</ele>
        <time>2020-06-24T15:00:23.519Z</time>
      </trkpt>
      <trkpt lat="46.1776" lon="7.18083">
        <ele>729.11</ele>
        <time>2020-06-24T15:00:45.208Z</time>
      </trkpt>
      <trkpt lat="46.17767" lon="7.18087">
        <ele>729.4</ele>
        <time>2020-06-24T15:00:51.992Z</time>
      </trkpt>
      <trkpt lat="46.17775" lon="7.18093">
        <ele>731.08</ele>
        <time>2020-06-24T15:01:12.267Z</time>
      </trkpt>
      <trkpt lat="46.17782" lon="7.18099">
        <ele>731.35</ele>
        <time>2020-06-24T15:01:19.086Z</time>
      </trkpt>
      <trkpt lat="46.17789" lon="7.18105">
        <ele>732.65</ele>
        <time>2020-06-24T15:01:37.394Z</time>
      </trkpt>
      <trkpt lat="46.17798" lon="7.18114">
        <ele>733.47</ele>
        <time>2020-06-24T15:01:50.733Z</time>
      </trkpt>
      <trkpt lat="46.17802" lon="7.18121">
        <ele>733.8</ele>
        <time>2020-06-24T15:01:57.248Z</time>
      </trkpt>
      <trkpt lat="46.17807" lon="7.18129">
        <ele>733.76</ele>
        <time>2020-06-24T15:02:01.269Z</time>
      </trkpt>
      <trkpt lat="46.17815" lon="7.18141">
        <ele>733.38</ele>
        <time>2020-06-24T15:02:03.617Z</time>
      </trkpt>
      <trkpt lat="46.17829" lon="7.18157">
        <ele>733.84</ele>
        <time>2020-06-24T15:02:17.244Z</time>
      </trkpt>
      <trkpt lat="46.17843" lon="7.18172">
        <ele>734.63</ele>
        <time>2020-06-24T15:02:34.489Z</time>
      </trkpt>
      <trkpt lat="46.17856" lon="7.18184">
        <ele>733.93</ele>
        <time>2020-06-24T15:02:37.277Z</time>
      </trkpt>
      <trkpt lat="46.17873" lon="7.182">
        <ele>733.63</ele>
        <time>2020-06-24T15:02:42.344Z</time>
      </trkpt>
      <trkpt lat="46.17885" lon="7.18211">
        <ele>733.69</ele>
        <time>2020-06-24T15:02:50.965Z</time>
      </trkpt>
      <trkpt lat="46.179" lon="7.18225">
        <ele>733.77</ele>
        <time>2020-06-24T15:03:01.825Z</time>
      </trkpt>
      <trkpt lat="46.1792" lon="7.18243">
        <ele>734.28</ele>
        <time>2020-06-24T15:03:18.965Z</time>
      </trkpt>
      <trkpt lat="46.17938" lon="7.1826">
        <ele>733.88</ele>
        <time>2020-06-24T15:03:24.091Z</time>
      </trkpt>
      <trkpt lat="46.17951" lon="7.18274">
        <ele>734.01</ele>
        <time>2020-06-24T15:03:34.297Z</time>
      </trkpt>
      <trkpt lat="46.17969" lon="7.18291">
        <ele>733.69</ele>
        <time>2020-06-24T15:03:39.661Z</time>
      </trkpt>
      <trkpt lat="46.17982" lon="7.18304">
        <ele>733.3</ele>
        <time>2020-06-24T15:03:43.176Z</time>
      </trkpt>
      <trkpt lat="46.18019" lon="7.18336">
        <ele>734.09</ele>
        <time>2020-06-24T15:04:13.395Z</time>
      </trkpt>
      <trkpt lat="46.18029" lon="7.18344">
        <ele>733.96</ele>
        <time>2020-06-24T15:04:16.377Z</time>
      </trkpt>
      <trkpt lat="46.18041" lon="7.18352">
        <ele>734.32</ele>
        <time>2020-06-24T15:04:26.646Z</time>
      </trkpt>
      <trkpt lat="46.18051" lon="7.18358">
        <ele>734.82</ele>
        <time>2020-06-24T15:04:37.417Z</time>
      </trkpt>
      <trkpt lat="46.18061" lon="7.18365">
        <ele>735.25</ele>
        <time>2020-06-24T15:04:47.455Z</time>
      </trkpt>
      <trkpt lat="46.18074" lon="7.18372">
        <ele>735.25</ele>
        <time>2020-06-24T15:04:55.546Z</time>
      </trkpt>
      <trkpt lat="46.18102" lon="7.1838">
        <ele>735.53</ele>
        <time>2020-06-24T15:05:13.833Z</time>
      </trkpt>
      <trkpt lat="46.18111" lon="7.18384">
        <ele>735.72</ele>
        <time>2020-06-24T15:05:20.569Z</time>
      </trkpt>
      <trkpt lat="46.18122" lon="7.18389">
        <ele>735.88</ele>
        <time>2020-06-24T15:05:28.273Z</time>
      </trkpt>
      <trkpt lat="46.18133" lon="7.18395">
        <ele>736.13</ele>
        <time>2020-06-24T15:05:36.788Z</time>
      </trkpt>
      <trkpt lat="46.18154" lon="7.18402">
        <ele>736.28</ele>
        <time>2020-06-24T15:05:50.211Z</time>
      </trkpt>
      <trkpt lat="46.18167" lon="7.18405">
        <ele>736.13</ele>
        <time>2020-06-24T15:05:53.644Z</time>
      </trkpt>
      <trkpt lat="46.18192" lon="7.18413">
        <ele>734.7</ele>
        <time>2020-06-24T15:05:57.870Z</time>
      </trkpt>
      <trkpt lat="46.18197" lon="7.18415">
        <ele>733.86</ele>
        <time>2020-06-24T15:05:58.729Z</time>
      </trkpt>
      <trkpt lat="46.182" lon="7.18418">
        <ele>733.48</ele>
        <time>2020-06-24T15:05:59.332Z</time>
      </trkpt>
      <trkpt lat="46.18201" lon="7.1842">
        <ele>733.35</ele>
        <time>2020-06-24T15:05:59.615Z</time>
      </trkpt>
      <trkpt lat="46.18201" lon="7.18419">
        <ele>733.35</ele>
        <time>2020-06-24T15:06:00.018Z</time>
      </trkpt>
      <trkpt lat="46.182" lon="7.18418">
        <ele>733.48</ele>
        <time>2020-06-24T15:06:01.995Z</time>
      </trkpt>
      <trkpt lat="46.18197" lon="7.18415">
        <ele>733.86</ele>
        <time>2020-06-24T15:06:07.761Z</time>
      </trkpt>
      <trkpt lat="46.18192" lon="7.18413">
        <ele>734.7</ele>
        <time>2020-06-24T15:06:19.431Z</time>
      </trkpt>
      <trkpt lat="46.18167" lon="7.18405">
        <ele>736.13</ele>
        <time>2020-06-24T15:06:46.580Z</time>
      </trkpt>
      <trkpt lat="46.18154" lon="7.18402">
        <ele>736.28</ele>
        <time>2020-06-24T15:06:55.151Z</time>
      </trkpt>
      <trkpt lat="46.18133" lon="7.18395">
        <ele>736.13</ele>
        <time>2020-06-24T15:07:06.508Z</time>
      </trkpt>
      <trkpt lat="46.18122" lon="7.18389">
        <ele>735.88</ele>
        <time>2020-06-24T15:07:09.224Z</time>
      </trkpt>
      <trkpt lat="46.18111" lon="7.18384">
        <ele>735.72</ele>
        <time>2020-06-24T15:07:12.137Z</time>
      </trkpt>
      <trkpt lat="46.18102" lon="7.1838">
        <ele>735.53</ele>
        <time>2020-06-24T15:07:14.340Z</time>
      </trkpt>
      <trkpt lat="46.18074" lon="7.18372">
        <ele>735.25</ele>
        <time>2020-06-24T15:07:21.940Z</time>
      </trkpt>
      <trkpt lat="46.18061" lon="7.18365">
        <ele>735.25</ele>
        <time>2020-06-24T15:07:30.031Z</time>
      </trkpt>
      <trkpt lat="46.18051" lon="7.18358">
        <ele>734.82</ele>
        <time>2020-06-24T15:07:32.167Z</time>
      </trkpt>
      <trkpt lat="46.18041" lon="7.18352">
        <ele>734.32</ele>
        <time>2020-06-24T15:07:34.110Z</time>
      </trkpt>
      <trkpt lat="46.18029" lon="7.18344">
        <ele>733.96</ele>
        <time>2020-06-24T15:07:36.966Z</time>
      </trkpt>
      <trkpt lat="46.18019" lon="7.18336">
        <ele>734.09</ele>
        <time>2020-06-24T15:07:44.407Z</time>
      </trkpt>
      <trkpt lat="46.17982" lon="7.18304">
        <ele>733.3</ele>
        <time>2020-06-24T15:07:54.722Z</time>
      </trkpt>
      <trkpt lat="46.17969" lon="7.18291">
        <ele>733.69</ele>
        <time>2020-06-24T15:08:06.633Z</time>
      </trkpt>
      <trkpt lat="46.17951" lon="7.18274">
        <ele>734.01</ele>
        <time>2020-06-24T15:08:21.154Z</time>
      </trkpt>
      <trkpt lat="46.17938" lon="7.1826">
        <ele>733.88</ele>
        <time>2020-06-24T15:08:25.577Z</time>
      </trkpt>
      <trkpt lat="46.1792" lon="7.18243">
        <ele>734.28</ele>
        <time>2020-06-24T15:08:40.694Z</time>
      </trkpt>
      <trkpt lat="46.179" lon="7.18225">
        <ele>733.77</ele>
        <time>2020-06-24T15:08:46.114Z</time>
      </trkpt>
      <trkpt lat="46.17885" lon="7.18211">
        <ele>733.69</ele>
        <time>2020-06-24T15:08:55.860Z</time>
      </trkpt>
      <trkpt lat="46.17873" lon="7.182">
        <ele>733.63</ele>
        <time>2020-06-24T15:09:03.645Z</time>
      </trkpt>
      <trkpt lat="46.17856" lon="7.18184">
        <ele>733.93</ele>
        <time>2020-06-24T15:09:17.330Z</time>
      </trkpt>
      <trkpt lat="46.17843" lon="7.18172">
        <ele>734.63</ele>
        <time>2020-06-24T15:09:32.599Z</time>
      </trkpt>
      <trkpt lat="46.17829" lon="7.18157">
        <ele>733.84</ele>
        <time>2020-06-24T15:09:35.750Z</time>
      </trkpt>
      <trkpt lat="46.17815" lon="7.18141">
        <ele>733.38</ele>
        <time>2020-06-24T15:09:39.671Z</time>
      </trkpt>
      <trkpt lat="46.17807" lon="7.18129">
        <ele>733.76</ele>
        <time>2020-06-24T15:09:49.303Z</time>
      </trkpt>
      <trkpt lat="46.17802" lon="7.18121">
        <ele>733.8</ele>
        <time>2020-06-24T15:09:53.880Z</time>
      </trkpt>
      <trkpt lat="46.17798" lon="7.18114">
        <ele>733.47</ele>
        <time>2020-06-24T15:09:54.946Z</time>
      </trkpt>
      <trkpt lat="46.17802" lon="7.18117">
        <ele>733.96</ele>
        <time>2020-06-24T15:10:02.415Z</time>
      </trkpt>
      <trkpt lat="46.17806" lon="7.1812">
        <ele>734.72</ele>
        <time>2020-06-24T15:10:12.553Z</time>
      </trkpt>
      <trkpt lat="46.1781" lon="7.18125">
        <ele>735.94</ele>
        <time>2020-06-24T15:10:24.452Z</time>
      </trkpt>
      <trkpt lat="46.17818" lon="7.18132">
        <ele>736.96</ele>
        <time>2020-06-24T15:10:40.008Z</time>
      </trkpt>
      <trkpt lat="46.17821" lon="7.18135">
        <ele>739.61</ele>
        <time>2020-06-24T15:10:48.215Z</time>
      </trkpt>
      <trkpt lat="46.17821" lon="7.18134">
        <ele>739.61</ele>
        <time>2020-06-24T15:10:48.619Z</time>
      </trkpt>
      <trkpt lat="46.17849" lon="7.18158">
        <ele>742.27</ele>
        <time>2020-06-24T15:11:30.520Z</time>
      </trkpt>
      <trkpt lat="46.17876" lon="7.18178">
        <ele>743.75</ele>
        <time>2020-06-24T15:12:01.213Z</time>
      </trkpt>
      <trkpt lat="46.17887" lon="7.18185">
        <ele>744.91</ele>
        <time>2020-06-24T15:12:18.841Z</time>
      </trkpt>
      <trkpt lat="46.17907" lon="7.18201">
        <ele>747.79</ele>
        <time>2020-06-24T15:13:05.255Z</time>
      </trkpt>
      <trkpt lat="46.17914" lon="7.18207">
        <ele>748.58</ele>
        <time>2020-06-24T15:13:17.254Z</time>
      </trkpt>
      <trkpt lat="46.17928" lon="7.18219">
        <ele>750.44</ele>
        <time>2020-06-24T15:13:45.923Z</time>
      </trkpt>
      <trkpt lat="46.17939" lon="7.18229">
        <ele>751.74</ele>
        <time>2020-06-24T15:14:05.636Z</time>
      </trkpt>
      <trkpt lat="46.17945" lon="7.18234">
        <ele>752.86</ele>
        <time>2020-06-24T15:14:21.217Z</time>
      </trkpt>
      <trkpt lat="46.17949" lon="7.18237">
        <ele>752.94</ele>
        <time>2020-06-24T15:14:24.356Z</time>
      </trkpt>
      <trkpt lat="46.17955" lon="7.18239">
        <ele>754.42</ele>
        <time>2020-06-24T15:14:38.206Z</time>
      </trkpt>
      <trkpt lat="46.17958" lon="7.18239">
        <ele>754.76</ele>
        <time>2020-06-24T15:14:43.434Z</time>
      </trkpt>
      <trkpt lat="46.17962" lon="7.1824">
        <ele>755.17</ele>
        <time>2020-06-24T15:14:49.651Z</time>
      </trkpt>
      <trkpt lat="46.17966" lon="7.18244">
        <ele>756.73</ele>
        <time>2020-06-24T15:15:00.594Z</time>
      </trkpt>
      <trkpt lat="46.17972" lon="7.1825">
        <ele>756.93</ele>
        <time>2020-06-24T15:15:06.276Z</time>
      </trkpt>
      <trkpt lat="46.17981" lon="7.18259">
        <ele>758.45</ele>
        <time>2020-06-24T15:15:30.898Z</time>
      </trkpt>
      <trkpt lat="46.17992" lon="7.18271">
        <ele>758.47</ele>
        <time>2020-06-24T15:15:39.044Z</time>
      </trkpt>
      <trkpt lat="46.17991" lon="7.18271">
        <ele>758.47</ele>
        <time>2020-06-24T15:15:39.628Z</time>
      </trkpt>
      <trkpt lat="46.17993" lon="7.18273">
        <ele>758.5</ele>
        <time>2020-06-24T15:15:41.227Z</time>
      </trkpt>
      <trkpt lat="46.17998" lon="7.18277">
        <ele>759</ele>
        <time>2020-06-24T15:15:48.952Z</time>
      </trkpt>
      <trkpt lat="46.18023" lon="7.18289">
        <ele>763.51</ele>
        <time>2020-06-24T15:16:48.206Z</time>
      </trkpt>
      <trkpt lat="46.18033" lon="7.18294">
        <ele>764.11</ele>
        <time>2020-06-24T15:16:59.492Z</time>
      </trkpt>
      <trkpt lat="46.18043" lon="7.18301">
        <ele>765.74</ele>
        <time>2020-06-24T15:17:24.487Z</time>
      </trkpt>
      <trkpt lat="46.18052" lon="7.18306">
        <ele>766.59</ele>
        <time>2020-06-24T15:17:37.595Z</time>
      </trkpt>
      <trkpt lat="46.18067" lon="7.18308">
        <ele>768.88</ele>
        <time>2020-06-24T15:18:11.477Z</time>
      </trkpt>
      <trkpt lat="46.18078" lon="7.18312">
        <ele>769.37</ele>
        <time>2020-06-24T15:18:22.423Z</time>
      </trkpt>
      <trkpt lat="46.18114" lon="7.1832">
        <ele>774.48</ele>
        <time>2020-06-24T15:19:44.347Z</time>
      </trkpt>
      <trkpt lat="46.18115" lon="7.1832">
        <ele>774.9</ele>
        <time>2020-06-24T15:19:46.597Z</time>
      </trkpt>
      <trkpt lat="46.18114" lon="7.1832">
        <ele>774.9</ele>
        <time>2020-06-24T15:19:47.180Z</time>
      </trkpt>
      <trkpt lat="46.18124" lon="7.18321">
        <ele>775.31</ele>
        <time>2020-06-24T15:19:56.527Z</time>
      </trkpt>
      <trkpt lat="46.18133" lon="7.18322">
        <ele>776.22</ele>
        <time>2020-06-24T15:20:10.324Z</time>
      </trkpt>
      <trkpt lat="46.18146" lon="7.18321">
        <ele>778.16</ele>
        <time>2020-06-24T15:20:39.606Z</time>
      </trkpt>
      <trkpt lat="46.18162" lon="7.18321">
        <ele>779.26</ele>
        <time>2020-06-24T15:20:58.205Z</time>
      </trkpt>
      <trkpt lat="46.18181" lon="7.18322">
        <ele>782.34</ele>
        <time>2020-06-24T15:21:40.968Z</time>
      </trkpt>
      <trkpt lat="46.1819" lon="7.18321">
        <ele>783.39</ele>
        <time>2020-06-24T15:21:57.246Z</time>
      </trkpt>
      <trkpt lat="46.18203" lon="7.18318">
        <ele>785.02</ele>
        <time>2020-06-24T15:22:23.242Z</time>
      </trkpt>
      <trkpt lat="46.18223" lon="7.18312">
        <ele>788.68</ele>
        <time>2020-06-24T15:23:09.187Z</time>
      </trkpt>
      <trkpt lat="46.18244" lon="7.18303">
        <ele>792.6</ele>
        <time>2020-06-24T15:23:58.456Z</time>
      </trkpt>
      <trkpt lat="46.18252" lon="7.18298">
        <ele>793.88</ele>
        <time>2020-06-24T15:24:18.062Z</time>
      </trkpt>
      <trkpt lat="46.18256" lon="7.18296">
        <ele>794.88</ele>
        <time>2020-06-24T15:24:27.583Z</time>
      </trkpt>
      <trkpt lat="46.18261" lon="7.18296">
        <ele>795.58</ele>
        <time>2020-06-24T15:24:38.829Z</time>
      </trkpt>
      <trkpt lat="46.18264" lon="7.18296">
        <ele>796.32</ele>
        <time>2020-06-24T15:24:45.576Z</time>
      </trkpt>
      <trkpt lat="46.18266" lon="7.18293">
        <ele>796.84</ele>
        <time>2020-06-24T15:24:52.062Z</time>
      </trkpt>
      <trkpt lat="46.18265" lon="7.18291">
        <ele>797.16</ele>
        <time>2020-06-24T15:24:55.904Z</time>
      </trkpt>
      <trkpt lat="46.18263" lon="7.18289">
        <ele>797.75</ele>
        <time>2020-06-24T15:25:01.375Z</time>
      </trkpt>
      <trkpt lat="46.1826" lon="7.18287">
        <ele>798.52</ele>
        <time>2020-06-24T15:25:08.807Z</time>
      </trkpt>
      <trkpt lat="46.18254" lon="7.18285">
        <ele>799.19</ele>
        <time>2020-06-24T15:25:19.021Z</time>
      </trkpt>
      <trkpt lat="46.18248" lon="7.18284">
        <ele>800.4</ele>
        <time>2020-06-24T15:25:32.606Z</time>
      </trkpt>
      <trkpt lat="46.18243" lon="7.18285">
        <ele>801.06</ele>
        <time>2020-06-24T15:25:43.536Z</time>
      </trkpt>
      <trkpt lat="46.18238" lon="7.18286">
        <ele>801.71</ele>
        <time>2020-06-24T15:25:54.172Z</time>
      </trkpt>
      <trkpt lat="46.18236" lon="7.18285">
        <ele>802.03</ele>
        <time>2020-06-24T15:25:58.933Z</time>
      </trkpt>
      <trkpt lat="46.18235" lon="7.18282">
        <ele>802.35</ele>
        <time>2020-06-24T15:26:04.118Z</time>
      </trkpt>
      <trkpt lat="46.18235" lon="7.18279">
        <ele>802.78</ele>
        <time>2020-06-24T15:26:08.790Z</time>
      </trkpt>
      <trkpt lat="46.18237" lon="7.18276">
        <ele>803</ele>
        <time>2020-06-24T15:26:12.342Z</time>
      </trkpt>
      <trkpt lat="46.18242" lon="7.18273">
        <ele>803.75</ele>
        <time>2020-06-24T15:26:24.520Z</time>
      </trkpt>
      <trkpt lat="46.18246" lon="7.18269">
        <ele>804.61</ele>
        <time>2020-06-24T15:26:35.463Z</time>
      </trkpt>
      <trkpt lat="46.1825" lon="7.18268">
        <ele>805.26</ele>
        <time>2020-06-24T15:26:44.593Z</time>
      </trkpt>
      <trkpt lat="46.18254" lon="7.18269">
        <ele>805.77</ele>
        <time>2020-06-24T15:26:52.799Z</time>
      </trkpt>
      <trkpt lat="46.18264" lon="7.18267">
        <ele>807.65</ele>
        <time>2020-06-24T15:27:15.505Z</time>
      </trkpt>
      <trkpt lat="46.18267" lon="7.18266">
        <ele>808.72</ele>
        <time>2020-06-24T15:27:22.430Z</time>
      </trkpt>
      <trkpt lat="46.18273" lon="7.18263">
        <ele>810.32</ele>
        <time>2020-06-24T15:27:36.712Z</time>
      </trkpt>
      <trkpt lat="46.18276" lon="7.18264">
        <ele>810.86</ele>
        <time>2020-06-24T15:27:43.637Z</time>
      </trkpt>
      <trkpt lat="46.1828" lon="7.18263">
        <ele>812.03</ele>
        <time>2020-06-24T15:27:52.767Z</time>
      </trkpt>
      <trkpt lat="46.18285" lon="7.1826">
        <ele>814.26</ele>
        <time>2020-06-24T15:28:04.945Z</time>
      </trkpt>
      <trkpt lat="46.18288" lon="7.18258">
        <ele>815.82</ele>
        <time>2020-06-24T15:28:12.377Z</time>
      </trkpt>
      <trkpt lat="46.1829" lon="7.18258">
        <ele>816.37</ele>
        <time>2020-06-24T15:28:16.875Z</time>
      </trkpt>
      <trkpt lat="46.1829" lon="7.18258">
        <ele>816.09</ele>
        <time>2020-06-24T15:28:16.875Z</time>
      </trkpt>
      <trkpt lat="46.1829" lon="7.18258">
        <ele>816.37</ele>
        <time>2020-06-24T15:28:16.875Z</time>
      </trkpt>
      <trkpt lat="46.18295" lon="7.18261">
        <ele>816.16</ele>
        <time>2020-06-24T15:28:17.915Z</time>
      </trkpt>
      <trkpt lat="46.18359" lon="7.18325">
        <ele>817.69</ele>
        <time>2020-06-24T15:29:13.274Z</time>
      </trkpt>
      <trkpt lat="46.18359" lon="7.18324">
        <ele>817.69</ele>
        <time>2020-06-24T15:29:13.678Z</time>
      </trkpt>
      <trkpt lat="46.18366" lon="7.18332">
        <ele>819.21</ele>
        <time>2020-06-24T15:29:33.755Z</time>
      </trkpt>
      <trkpt lat="46.18372" lon="7.18337">
        <ele>819.28</ele>
        <time>2020-06-24T15:29:38.207Z</time>
      </trkpt>
      <trkpt lat="46.18379" lon="7.18342">
        <ele>819.3</ele>
        <time>2020-06-24T15:29:42.870Z</time>
      </trkpt>
      <trkpt lat="46.18384" lon="7.18346">
        <ele>819.44</ele>
        <time>2020-06-24T15:29:47.167Z</time>
      </trkpt>
      <trkpt lat="46.18394" lon="7.1836">
        <ele>821.15</ele>
        <time>2020-06-24T15:30:14.313Z</time>
      </trkpt>
      <trkpt lat="46.18401" lon="7.18367">
        <ele>822.15</ele>
        <time>2020-06-24T15:30:29.870Z</time>
      </trkpt>
      <trkpt lat="46.18406" lon="7.18371">
        <ele>822.51</ele>
        <time>2020-06-24T15:30:36.240Z</time>
      </trkpt>
      <trkpt lat="46.18411" lon="7.18374">
        <ele>822.77</ele>
        <time>2020-06-24T15:30:41.690Z</time>
      </trkpt>
      <trkpt lat="46.18421" lon="7.18383">
        <ele>823.6</ele>
        <time>2020-06-24T15:30:55.562Z</time>
      </trkpt>
      <trkpt lat="46.18427" lon="7.18387">
        <ele>823.97</ele>
        <time>2020-06-24T15:31:02.575Z</time>
      </trkpt>
      <trkpt lat="46.18435" lon="7.18393">
        <ele>823.74</ele>
        <time>2020-06-24T15:31:04.560Z</time>
      </trkpt>
      <trkpt lat="46.18442" lon="7.184">
        <ele>823.38</ele>
        <time>2020-06-24T15:31:06.143Z</time>
      </trkpt>
      <trkpt lat="46.18451" lon="7.18409">
        <ele>823.33</ele>
        <time>2020-06-24T15:31:12.108Z</time>
      </trkpt>
      <trkpt lat="46.18461" lon="7.18418">
        <ele>823.64</ele>
        <time>2020-06-24T15:31:21.161Z</time>
      </trkpt>
      <trkpt lat="46.18468" lon="7.18424">
        <ele>823.91</ele>
        <time>2020-06-24T15:31:27.979Z</time>
      </trkpt>
      <trkpt lat="46.18475" lon="7.18432">
        <ele>824.22</ele>
        <time>2020-06-24T15:31:35.612Z</time>
      </trkpt>
      <trkpt lat="46.18488" lon="7.18448">
        <ele>822.66</ele>
        <time>2020-06-24T15:31:38.437Z</time>
      </trkpt>
      <trkpt lat="46.18493" lon="7.18453">
        <ele>822.37</ele>
        <time>2020-06-24T15:31:39.513Z</time>
      </trkpt>
      <trkpt lat="46.18501" lon="7.18459">
        <ele>822.34</ele>
        <time>2020-06-24T15:31:44.515Z</time>
      </trkpt>
      <trkpt lat="46.18512" lon="7.18467">
        <ele>822.34</ele>
        <time>2020-06-24T15:31:51.696Z</time>
      </trkpt>
      <trkpt lat="46.1852" lon="7.18473">
        <ele>822.46</ele>
        <time>2020-06-24T15:31:57.683Z</time>
      </trkpt>
      <trkpt lat="46.18526" lon="7.18478">
        <ele>822.64</ele>
        <time>2020-06-24T15:32:02.984Z</time>
      </trkpt>
      <trkpt lat="46.18537" lon="7.18492">
        <ele>823.4</ele>
        <time>2020-06-24T15:32:18.115Z</time>
      </trkpt>
      <trkpt lat="46.18545" lon="7.18502">
        <ele>824.84</ele>
        <time>2020-06-24T15:32:41.911Z</time>
      </trkpt>
      <trkpt lat="46.18552" lon="7.18511">
        <ele>825.17</ele>
        <time>2020-06-24T15:32:49.978Z</time>
      </trkpt>
      <trkpt lat="46.18561" lon="7.18523">
        <ele>825.37</ele>
        <time>2020-06-24T15:32:58.377Z</time>
      </trkpt>
      <trkpt lat="46.18578" lon="7.18542">
        <ele>824.53</ele>
        <time>2020-06-24T15:33:02.495Z</time>
      </trkpt>
      <trkpt lat="46.18602" lon="7.18566">
        <ele>823.08</ele>
        <time>2020-06-24T15:33:07.571Z</time>
      </trkpt>
      <trkpt lat="46.18629" lon="7.18588">
        <ele>823.09</ele>
        <time>2020-06-24T15:33:25.702Z</time>
      </trkpt>
      <trkpt lat="46.18634" lon="7.18592">
        <ele>823.29</ele>
        <time>2020-06-24T15:33:30.607Z</time>
      </trkpt>
      <trkpt lat="46.18639" lon="7.18594">
        <ele>823.97</ele>
        <time>2020-06-24T15:33:41.890Z</time>
      </trkpt>
      <trkpt lat="46.18644" lon="7.18595">
        <ele>824.36</ele>
        <time>2020-06-24T15:33:48.156Z</time>
      </trkpt>
      <trkpt lat="46.1865" lon="7.18594">
        <ele>824.89</ele>
        <time>2020-06-24T15:33:56.339Z</time>
      </trkpt>
      <trkpt lat="46.18658" lon="7.18591">
        <ele>825.83</ele>
        <time>2020-06-24T15:34:10.808Z</time>
      </trkpt>
      <trkpt lat="46.18667" lon="7.18587">
        <ele>826.16</ele>
        <time>2020-06-24T15:34:18.895Z</time>
      </trkpt>
      <trkpt lat="46.18673" lon="7.18584">
        <ele>826.62</ele>
        <time>2020-06-24T15:34:26.486Z</time>
      </trkpt>
      <trkpt lat="46.18678" lon="7.18585">
        <ele>827.95</ele>
        <time>2020-06-24T15:34:37.839Z</time>
      </trkpt>
      <trkpt lat="46.18683" lon="7.18586">
        <ele>827.27</ele>
        <time>2020-06-24T15:34:38.674Z</time>
      </trkpt>
      <trkpt lat="46.18693" lon="7.18587">
        <ele>827.68</ele>
        <time>2020-06-24T15:34:48.021Z</time>
      </trkpt>
      <trkpt lat="46.1871" lon="7.18591">
        <ele>828.79</ele>
        <time>2020-06-24T15:35:07.419Z</time>
      </trkpt>
      <trkpt lat="46.18714" lon="7.18591">
        <ele>829.23</ele>
        <time>2020-06-24T15:35:14.140Z</time>
      </trkpt>
      <trkpt lat="46.18722" lon="7.18587">
        <ele>829.86</ele>
        <time>2020-06-24T15:35:24.416Z</time>
      </trkpt>
      <trkpt lat="46.18722" lon="7.18586">
        <ele>830.05</ele>
        <time>2020-06-24T15:35:25.973Z</time>
      </trkpt>
      <trkpt lat="46.18722" lon="7.18587">
        <ele>829.54</ele>
        <time>2020-06-24T15:35:26.088Z</time>
      </trkpt>
      <trkpt lat="46.18722" lon="7.18587">
        <ele>829.86</ele>
        <time>2020-06-24T15:35:26.088Z</time>
      </trkpt>
      <trkpt lat="46.1873" lon="7.18583">
        <ele>830.25</ele>
        <time>2020-06-24T15:35:34.503Z</time>
      </trkpt>
      <trkpt lat="46.18733" lon="7.18582">
        <ele>830.69</ele>
        <time>2020-06-24T15:35:41.428Z</time>
      </trkpt>
      <trkpt lat="46.18735" lon="7.18583">
        <ele>830.8</ele>
        <time>2020-06-24T15:35:43.614Z</time>
      </trkpt>
      <trkpt lat="46.18739" lon="7.18586">
        <ele>831.09</ele>
        <time>2020-06-24T15:35:48.686Z</time>
      </trkpt>
      <trkpt lat="46.18742" lon="7.18592">
        <ele>831.47</ele>
        <time>2020-06-24T15:35:54.894Z</time>
      </trkpt>
      <trkpt lat="46.18743" lon="7.18599">
        <ele>831.82</ele>
        <time>2020-06-24T15:36:00.732Z</time>
      </trkpt>
      <trkpt lat="46.18745" lon="7.18606">
        <ele>831.94</ele>
        <time>2020-06-24T15:36:04.600Z</time>
      </trkpt>
      <trkpt lat="46.1875" lon="7.18613">
        <ele>832.51</ele>
        <time>2020-06-24T15:36:13.573Z</time>
      </trkpt>
      <trkpt lat="46.18755" lon="7.18621">
        <ele>833.29</ele>
        <time>2020-06-24T15:36:25.411Z</time>
      </trkpt>
      <trkpt lat="46.18761" lon="7.18628">
        <ele>833.86</ele>
        <time>2020-06-24T15:36:34.736Z</time>
      </trkpt>
      <trkpt lat="46.18768" lon="7.18636">
        <ele>834.27</ele>
        <time>2020-06-24T15:36:43.601Z</time>
      </trkpt>
      <trkpt lat="46.18774" lon="7.18641">
        <ele>834.36</ele>
        <time>2020-06-24T15:36:48.186Z</time>
      </trkpt>
      <trkpt lat="46.18787" lon="7.18647">
        <ele>834.54</ele>
        <time>2020-06-24T15:36:57.238Z</time>
      </trkpt>
      <trkpt lat="46.18794" lon="7.18649">
        <ele>834.7</ele>
        <time>2020-06-24T15:37:02.474Z</time>
      </trkpt>
      <trkpt lat="46.18799" lon="7.18652">
        <ele>834.83</ele>
        <time>2020-06-24T15:37:06.522Z</time>
      </trkpt>
      <trkpt lat="46.18805" lon="7.18655">
        <ele>835.08</ele>
        <time>2020-06-24T15:37:12.313Z</time>
      </trkpt>
      <trkpt lat="46.18837" lon="7.18674">
        <ele>836.28</ele>
        <time>2020-06-24T15:37:41.882Z</time>
      </trkpt>
      <trkpt lat="46.1884" lon="7.18676">
        <ele>836.53</ele>
        <time>2020-06-24T15:37:45.932Z</time>
      </trkpt>
      <trkpt lat="46.18839" lon="7.18676">
        <ele>836.53</ele>
        <time>2020-06-24T15:37:46.515Z</time>
      </trkpt>
      <trkpt lat="46.18843" lon="7.18679">
        <ele>836.78</ele>
        <time>2020-06-24T15:37:51.281Z</time>
      </trkpt>
      <trkpt lat="46.18849" lon="7.18685">
        <ele>837.25</ele>
        <time>2020-06-24T15:37:59.498Z</time>
      </trkpt>
      <trkpt lat="46.18855" lon="7.18692">
        <ele>837.76</ele>
        <time>2020-06-24T15:38:08.291Z</time>
      </trkpt>
      <trkpt lat="46.18859" lon="7.18698">
        <ele>838.24</ele>
        <time>2020-06-24T15:38:15.808Z</time>
      </trkpt>
      <trkpt lat="46.18866" lon="7.18706">
        <ele>839.46</ele>
        <time>2020-06-24T15:38:35.884Z</time>
      </trkpt>
      <trkpt lat="46.1887" lon="7.1871">
        <ele>840.05</ele>
        <time>2020-06-24T15:38:45.191Z</time>
      </trkpt>
      <trkpt lat="46.18876" lon="7.18714">
        <ele>840.46</ele>
        <time>2020-06-24T15:38:52.506Z</time>
      </trkpt>
      <trkpt lat="46.18883" lon="7.18718">
        <ele>841.09</ele>
        <time>2020-06-24T15:39:02.356Z</time>
      </trkpt>
      <trkpt lat="46.18887" lon="7.1872">
        <ele>841.48</ele>
        <time>2020-06-24T15:39:08.318Z</time>
      </trkpt>
      <trkpt lat="46.1889" lon="7.18722">
        <ele>841.72</ele>
        <time>2020-06-24T15:39:12.274Z</time>
      </trkpt>
      <trkpt lat="46.18896" lon="7.18721">
        <ele>842.03</ele>
        <time>2020-06-24T15:39:18.486Z</time>
      </trkpt>
      <trkpt lat="46.18905" lon="7.18719">
        <ele>842.37</ele>
        <time>2020-06-24T15:39:26.556Z</time>
      </trkpt>
      <trkpt lat="46.18921" lon="7.18713">
        <ele>843.69</ele>
        <time>2020-06-24T15:39:47.509Z</time>
      </trkpt>
      <trkpt lat="46.18935" lon="7.18708">
        <ele>843.32</ele>
        <time>2020-06-24T15:39:50.680Z</time>
      </trkpt>
      <trkpt lat="46.18936" lon="7.18712">
        <ele>843.18</ele>
        <time>2020-06-24T15:39:51.202Z</time>
      </trkpt>
      <trkpt lat="46.18943" lon="7.18723">
        <ele>838.2</ele>
        <time>2020-06-24T15:39:52.913Z</time>
      </trkpt>
      <trkpt lat="46.18947" lon="7.18732">
        <ele>834.46</ele>
        <time>2020-06-24T15:39:54.137Z</time>
      </trkpt>
      <trkpt lat="46.18953" lon="7.18738">
        <ele>831.77</ele>
        <time>2020-06-24T15:39:55.344Z</time>
      </trkpt>
      <trkpt lat="46.18975" lon="7.18749">
        <ele>827.34</ele>
        <time>2020-06-24T15:39:59.195Z</time>
      </trkpt>
      <trkpt lat="46.18981" lon="7.1875">
        <ele>826.96</ele>
        <time>2020-06-24T15:40:00.137Z</time>
      </trkpt>
      <trkpt lat="46.18986" lon="7.18751">
        <ele>826.19</ele>
        <time>2020-06-24T15:40:00.972Z</time>
      </trkpt>
      <trkpt lat="46.18988" lon="7.18753">
        <ele>824.89</ele>
        <time>2020-06-24T15:40:01.374Z</time>
      </trkpt>
      <trkpt lat="46.18993" lon="7.18756">
        <ele>824.05</ele>
        <time>2020-06-24T15:40:02.269Z</time>
      </trkpt>
      <trkpt lat="46.19003" lon="7.18762">
        <ele>821.75</ele>
        <time>2020-06-24T15:40:04.060Z</time>
      </trkpt>
      <trkpt lat="46.19014" lon="7.1877">
        <ele>819.44</ele>
        <time>2020-06-24T15:40:06.097Z</time>
      </trkpt>
      <trkpt lat="46.19034" lon="7.18789">
        <ele>815.12</ele>
        <time>2020-06-24T15:40:10.057Z</time>
      </trkpt>
      <trkpt lat="46.19037" lon="7.18794">
        <ele>814.08</ele>
        <time>2020-06-24T15:40:10.814Z</time>
      </trkpt>
      <trkpt lat="46.19037" lon="7.18793">
        <ele>814.08</ele>
        <time>2020-06-24T15:40:11.218Z</time>
      </trkpt>
      <trkpt lat="46.19041" lon="7.18798">
        <ele>813.04</ele>
        <time>2020-06-24T15:40:12.093Z</time>
      </trkpt>
      <trkpt lat="46.19046" lon="7.18805">
        <ele>810.6</ele>
        <time>2020-06-24T15:40:13.244Z</time>
      </trkpt>
      <trkpt lat="46.19049" lon="7.18811">
        <ele>808.81</ele>
        <time>2020-06-24T15:40:14.092Z</time>
      </trkpt>
      <trkpt lat="46.1905" lon="7.18817">
        <ele>807.87</ele>
        <time>2020-06-24T15:40:14.798Z</time>
      </trkpt>
      <trkpt lat="46.19052" lon="7.18822">
        <ele>807.53</ele>
        <time>2020-06-24T15:40:15.460Z</time>
      </trkpt>
      <trkpt lat="46.19055" lon="7.18829">
        <ele>805.73</ele>
        <time>2020-06-24T15:40:16.402Z</time>
      </trkpt>
      <trkpt lat="46.19054" lon="7.18834">
        <ele>804.88</ele>
        <time>2020-06-24T15:40:16.998Z</time>
      </trkpt>
      <trkpt lat="46.19051" lon="7.18837">
        <ele>803.94</ele>
        <time>2020-06-24T15:40:17.602Z</time>
      </trkpt>
      <trkpt lat="46.1905" lon="7.1884">
        <ele>803.51</ele>
        <time>2020-06-24T15:40:17.983Z</time>
      </trkpt>
      <trkpt lat="46.1905" lon="7.18849">
        <ele>801.8</ele>
        <time>2020-06-24T15:40:19.013Z</time>
      </trkpt>
      <trkpt lat="46.1905" lon="7.18857">
        <ele>800.27</ele>
        <time>2020-06-24T15:40:19.929Z</time>
      </trkpt>
      <trkpt lat="46.19053" lon="7.18863">
        <ele>799.93</ele>
        <time>2020-06-24T15:40:20.707Z</time>
      </trkpt>
      <trkpt lat="46.19054" lon="7.18866">
        <ele>799.58</ele>
        <time>2020-06-24T15:40:21.089Z</time>
      </trkpt>
      <trkpt lat="46.19056" lon="7.18869">
        <ele>799.33</ele>
        <time>2020-06-24T15:40:21.566Z</time>
      </trkpt>
      <trkpt lat="46.19057" lon="7.18875">
        <ele>797.79</ele>
        <time>2020-06-24T15:40:22.272Z</time>
      </trkpt>
      <trkpt lat="46.19059" lon="7.1888">
        <ele>797.6</ele>
        <time>2020-06-24T15:40:22.981Z</time>
      </trkpt>
      <trkpt lat="46.19063" lon="7.18887">
        <ele>797.6</ele>
        <time>2020-06-24T15:40:26.645Z</time>
      </trkpt>
      <trkpt lat="46.19069" lon="7.18917">
        <ele>796.29</ele>
        <time>2020-06-24T15:40:30.078Z</time>
      </trkpt>
      <trkpt lat="46.1907" lon="7.18937">
        <ele>792.68</ele>
        <time>2020-06-24T15:40:32.374Z</time>
      </trkpt>
      <trkpt lat="46.19068" lon="7.18949">
        <ele>787.95</ele>
        <time>2020-06-24T15:40:33.787Z</time>
      </trkpt>
      <trkpt lat="46.19055" lon="7.18978">
        <ele>787.15</ele>
        <time>2020-06-24T15:40:38.631Z</time>
      </trkpt>
      <trkpt lat="46.19036" lon="7.19013">
        <ele>785.71</ele>
        <time>2020-06-24T15:40:44.125Z</time>
      </trkpt>
      <trkpt lat="46.19034" lon="7.19015">
        <ele>785.07</ele>
        <time>2020-06-24T15:40:44.527Z</time>
      </trkpt>
      <trkpt lat="46.19034" lon="7.19016">
        <ele>785.07</ele>
        <time>2020-06-24T15:40:44.931Z</time>
      </trkpt>
      <trkpt lat="46.19032" lon="7.19019">
        <ele>784.44</ele>
        <time>2020-06-24T15:40:45.408Z</time>
      </trkpt>
      <trkpt lat="46.19026" lon="7.19023">
        <ele>782.1</ele>
        <time>2020-06-24T15:40:46.500Z</time>
      </trkpt>
      <trkpt lat="46.19019" lon="7.19027">
        <ele>779.72</ele>
        <time>2020-06-24T15:40:47.746Z</time>
      </trkpt>
      <trkpt lat="46.19012" lon="7.19034">
        <ele>776.74</ele>
        <time>2020-06-24T15:40:49.154Z</time>
      </trkpt>
      <trkpt lat="46.19008" lon="7.19042">
        <ele>774.87</ele>
        <time>2020-06-24T15:40:50.284Z</time>
      </trkpt>
      <trkpt lat="46.19002" lon="7.19057">
        <ele>772.36</ele>
        <time>2020-06-24T15:40:52.267Z</time>
      </trkpt>
      <trkpt lat="46.18996" lon="7.19067">
        <ele>770.08</ele>
        <time>2020-06-24T15:40:53.782Z</time>
      </trkpt>
      <trkpt lat="46.18988" lon="7.19079">
        <ele>768.81</ele>
        <time>2020-06-24T15:40:55.690Z</time>
      </trkpt>
      <trkpt lat="46.18988" lon="7.19083">
        <ele>768.17</ele>
        <time>2020-06-24T15:40:56.148Z</time>
      </trkpt>
      <trkpt lat="46.18987" lon="7.19089">
        <ele>768.17</ele>
        <time>2020-06-24T15:40:58.639Z</time>
      </trkpt>
      <trkpt lat="46.18978" lon="7.19111">
        <ele>767.97</ele>
        <time>2020-06-24T15:41:03.258Z</time>
      </trkpt>
      <trkpt lat="46.18978" lon="7.19111">
        <ele>767.97</ele>
        <time>2020-06-24T15:41:03.258Z</time>
      </trkpt>
      <trkpt lat="46.18971" lon="7.19129">
        <ele>767.78</ele>
        <time>2020-06-24T15:41:06.895Z</time>
      </trkpt>
      <trkpt lat="46.18968" lon="7.19136">
        <ele>767.91</ele>
        <time>2020-06-24T15:41:11.096Z</time>
      </trkpt>
      <trkpt lat="46.18967" lon="7.19141">
        <ele>767.78</ele>
        <time>2020-06-24T15:41:11.806Z</time>
      </trkpt>
      <trkpt lat="46.18966" lon="7.19145">
        <ele>767.65</ele>
        <time>2020-06-24T15:41:12.344Z</time>
      </trkpt>
      <trkpt lat="46.18965" lon="7.19151">
        <ele>767.11</ele>
        <time>2020-06-24T15:41:13.051Z</time>
      </trkpt>
      <trkpt lat="46.1896" lon="7.19191">
        <ele>763.98</ele>
        <time>2020-06-24T15:41:17.705Z</time>
      </trkpt>
      <trkpt lat="46.18959" lon="7.19202">
        <ele>763.29</ele>
        <time>2020-06-24T15:41:18.975Z</time>
      </trkpt>
      <trkpt lat="46.18956" lon="7.19225">
        <ele>762.61</ele>
        <time>2020-06-24T15:41:21.996Z</time>
      </trkpt>
      <trkpt lat="46.18956" lon="7.19231">
        <ele>762.34</ele>
        <time>2020-06-24T15:41:22.633Z</time>
      </trkpt>
      <trkpt lat="46.18957" lon="7.19239">
        <ele>762.32</ele>
        <time>2020-06-24T15:41:25.745Z</time>
      </trkpt>
      <trkpt lat="46.18959" lon="7.19246">
        <ele>762.55</ele>
        <time>2020-06-24T15:41:30.856Z</time>
      </trkpt>
      <trkpt lat="46.18964" lon="7.19256">
        <ele>762.94</ele>
        <time>2020-06-24T15:41:39.323Z</time>
      </trkpt>
      <trkpt lat="46.18963" lon="7.19259">
        <ele>762.88</ele>
        <time>2020-06-24T15:41:39.828Z</time>
      </trkpt>
      <trkpt lat="46.18963" lon="7.19262">
        <ele>762.54</ele>
        <time>2020-06-24T15:41:40.171Z</time>
      </trkpt>
      <trkpt lat="46.18962" lon="7.19265">
        <ele>762.37</ele>
        <time>2020-06-24T15:41:40.553Z</time>
      </trkpt>
      <trkpt lat="46.18964" lon="7.19272">
        <ele>762.11</ele>
        <time>2020-06-24T15:41:41.465Z</time>
      </trkpt>
      <trkpt lat="46.18966" lon="7.19279">
        <ele>761.43</ele>
        <time>2020-06-24T15:41:42.332Z</time>
      </trkpt>
      <trkpt lat="46.1897" lon="7.1929">
        <ele>760.24</ele>
        <time>2020-06-24T15:41:43.755Z</time>
      </trkpt>
      <trkpt lat="46.18972" lon="7.19295">
        <ele>759.68</ele>
        <time>2020-06-24T15:41:44.416Z</time>
      </trkpt>
      <trkpt lat="46.18969" lon="7.19295">
        <ele>759.85</ele>
        <time>2020-06-24T15:41:47.615Z</time>
      </trkpt>
      <trkpt lat="46.18965" lon="7.19293">
        <ele>759.76</ele>
        <time>2020-06-24T15:41:48.593Z</time>
      </trkpt>
      <trkpt lat="46.18962" lon="7.19291">
        <ele>759.66</ele>
        <time>2020-06-24T15:41:49.284Z</time>
      </trkpt>
      <trkpt lat="46.18959" lon="7.19285">
        <ele>760.02</ele>
        <time>2020-06-24T15:41:55.308Z</time>
      </trkpt>
      <trkpt lat="46.18955" lon="7.19279">
        <ele>759.29</ele>
        <time>2020-06-24T15:41:56.262Z</time>
      </trkpt>
      <trkpt lat="46.18952" lon="7.19273">
        <ele>758.59</ele>
        <time>2020-06-24T15:41:57.109Z</time>
      </trkpt>
      <trkpt lat="46.18948" lon="7.19268">
        <ele>757.18</ele>
        <time>2020-06-24T15:41:57.984Z</time>
      </trkpt>
      <trkpt lat="46.18941" lon="7.19264">
        <ele>755.29</ele>
        <time>2020-06-24T15:41:59.229Z</time>
      </trkpt>
      <trkpt lat="46.1893" lon="7.19256">
        <ele>752.75</ele>
        <time>2020-06-24T15:42:01.266Z</time>
      </trkpt>
      <trkpt lat="46.18919" lon="7.19247">
        <ele>750.66</ele>
        <time>2020-06-24T15:42:03.357Z</time>
      </trkpt>
      <trkpt lat="46.18905" lon="7.19236">
        <ele>748.33</ele>
        <time>2020-06-24T15:42:05.993Z</time>
      </trkpt>
      <trkpt lat="46.18893" lon="7.19227">
        <ele>746.21</ele>
        <time>2020-06-24T15:42:08.229Z</time>
      </trkpt>
      <trkpt lat="46.18888" lon="7.19222">
        <ele>744.93</ele>
        <time>2020-06-24T15:42:09.235Z</time>
      </trkpt>
      <trkpt lat="46.18877" lon="7.1921">
        <ele>742.52</ele>
        <time>2020-06-24T15:42:11.515Z</time>
      </trkpt>
      <trkpt lat="46.18869" lon="7.19204">
        <ele>740.66</ele>
        <time>2020-06-24T15:42:13.006Z</time>
      </trkpt>
      <trkpt lat="46.18865" lon="7.19201">
        <ele>739.69</ele>
        <time>2020-06-24T15:42:13.752Z</time>
      </trkpt>
      <trkpt lat="46.18861" lon="7.192">
        <ele>738.86</ele>
        <time>2020-06-24T15:42:14.423Z</time>
      </trkpt>
      <trkpt lat="46.18857" lon="7.19201">
        <ele>738.15</ele>
        <time>2020-06-24T15:42:15.094Z</time>
      </trkpt>
      <trkpt lat="46.18853" lon="7.19205">
        <ele>737.02</ele>
        <time>2020-06-24T15:42:15.899Z</time>
      </trkpt>
      <trkpt lat="46.18846" lon="7.19213">
        <ele>735.36</ele>
        <time>2020-06-24T15:42:17.375Z</time>
      </trkpt>
      <trkpt lat="46.18838" lon="7.19227">
        <ele>732.21</ele>
        <time>2020-06-24T15:42:19.454Z</time>
      </trkpt>
      <trkpt lat="46.18835" lon="7.19234">
        <ele>730.95</ele>
        <time>2020-06-24T15:42:20.397Z</time>
      </trkpt>
      <trkpt lat="46.18832" lon="7.19238">
        <ele>730</ele>
        <time>2020-06-24T15:42:21.072Z</time>
      </trkpt>
      <trkpt lat="46.1883" lon="7.1924">
        <ele>729.35</ele>
        <time>2020-06-24T15:42:21.474Z</time>
      </trkpt>
      <trkpt lat="46.18825" lon="7.19241">
        <ele>728.36</ele>
        <time>2020-06-24T15:42:22.309Z</time>
      </trkpt>
      <trkpt lat="46.18817" lon="7.1924">
        <ele>726.48</ele>
        <time>2020-06-24T15:42:23.637Z</time>
      </trkpt>
      <trkpt lat="46.18808" lon="7.19238">
        <ele>724.79</ele>
        <time>2020-06-24T15:42:25.143Z</time>
      </trkpt>
      <trkpt lat="46.188" lon="7.19236">
        <ele>723.78</ele>
        <time>2020-06-24T15:42:26.486Z</time>
      </trkpt>
      <trkpt lat="46.18784" lon="7.1925">
        <ele>719.81</ele>
        <time>2020-06-24T15:42:29.580Z</time>
      </trkpt>
      <trkpt lat="46.18776" lon="7.19255">
        <ele>717.67</ele>
        <time>2020-06-24T15:42:31.022Z</time>
      </trkpt>
      <trkpt lat="46.18769" lon="7.19258">
        <ele>715.77</ele>
        <time>2020-06-24T15:42:32.229Z</time>
      </trkpt>
      <trkpt lat="46.18758" lon="7.19261">
        <ele>713.66</ele>
        <time>2020-06-24T15:42:34.081Z</time>
      </trkpt>
      <trkpt lat="46.18746" lon="7.19263">
        <ele>710.77</ele>
        <time>2020-06-24T15:42:36.079Z</time>
      </trkpt>
      <trkpt lat="46.18731" lon="7.19264">
        <ele>706.93</ele>
        <time>2020-06-24T15:42:38.563Z</time>
      </trkpt>
      <trkpt lat="46.18727" lon="7.19264">
        <ele>706.24</ele>
        <time>2020-06-24T15:42:39.224Z</time>
      </trkpt>
      <trkpt lat="46.18709" lon="7.19263">
        <ele>701.04</ele>
        <time>2020-06-24T15:42:42.203Z</time>
      </trkpt>
      <trkpt lat="46.18706" lon="7.19264">
        <ele>700.09</ele>
        <time>2020-06-24T15:42:42.713Z</time>
      </trkpt>
      <trkpt lat="46.18702" lon="7.19266">
        <ele>699.03</ele>
        <time>2020-06-24T15:42:43.413Z</time>
      </trkpt>
      <trkpt lat="46.18699" lon="7.19269">
        <ele>698.11</ele>
        <time>2020-06-24T15:42:44.016Z</time>
      </trkpt>
      <trkpt lat="46.18691" lon="7.19292">
        <ele>693.64</ele>
        <time>2020-06-24T15:42:46.964Z</time>
      </trkpt>
      <trkpt lat="46.18687" lon="7.19304">
        <ele>692.15</ele>
        <time>2020-06-24T15:42:48.489Z</time>
      </trkpt>
      <trkpt lat="46.18684" lon="7.1931">
        <ele>691.58</ele>
        <time>2020-06-24T15:42:49.336Z</time>
      </trkpt>
      <trkpt lat="46.18683" lon="7.19312">
        <ele>691.33</ele>
        <time>2020-06-24T15:42:49.619Z</time>
      </trkpt>
      <trkpt lat="46.18683" lon="7.19312">
        <ele>691.33</ele>
        <time>2020-06-24T15:42:49.619Z</time>
      </trkpt>
      <trkpt lat="46.18681" lon="7.19315">
        <ele>691.07</ele>
        <time>2020-06-24T15:42:50.096Z</time>
      </trkpt>
      <trkpt lat="46.1868" lon="7.19322">
        <ele>690.61</ele>
        <time>2020-06-24T15:42:50.914Z</time>
      </trkpt>
      <trkpt lat="46.18679" lon="7.19331">
        <ele>690</ele>
        <time>2020-06-24T15:42:51.958Z</time>
      </trkpt>
      <trkpt lat="46.1868" lon="7.19341">
        <ele>689.31</ele>
        <time>2020-06-24T15:42:53.115Z</time>
      </trkpt>
      <trkpt lat="46.18682" lon="7.19356">
        <ele>689.01</ele>
        <time>2020-06-24T15:42:55.372Z</time>
      </trkpt>
      <trkpt lat="46.18687" lon="7.19369">
        <ele>688.37</ele>
        <time>2020-06-24T15:42:56.988Z</time>
      </trkpt>
      <trkpt lat="46.1869" lon="7.19375">
        <ele>688.23</ele>
        <time>2020-06-24T15:42:58.094Z</time>
      </trkpt>
      <trkpt lat="46.18695" lon="7.19386">
        <ele>687.97</ele>
        <time>2020-06-24T15:43:00.035Z</time>
      </trkpt>
      <trkpt lat="46.18703" lon="7.19398">
        <ele>687.35</ele>
        <time>2020-06-24T15:43:01.972Z</time>
      </trkpt>
      <trkpt lat="46.18723" lon="7.19415">
        <ele>685.78</ele>
        <time>2020-06-24T15:43:05.811Z</time>
      </trkpt>
      <trkpt lat="46.18726" lon="7.19421">
        <ele>684.86</ele>
        <time>2020-06-24T15:43:06.658Z</time>
      </trkpt>
      <trkpt lat="46.18732" lon="7.19431">
        <ele>684.73</ele>
        <time>2020-06-24T15:43:08.963Z</time>
      </trkpt>
      <trkpt lat="46.18739" lon="7.19446">
        <ele>684.09</ele>
        <time>2020-06-24T15:43:11.114Z</time>
      </trkpt>
      <trkpt lat="46.18733" lon="7.19446">
        <ele>683.83</ele>
        <time>2020-06-24T15:43:12.219Z</time>
      </trkpt>
      <trkpt lat="46.18724" lon="7.19446">
        <ele>682.8</ele>
        <time>2020-06-24T15:43:13.707Z</time>
      </trkpt>
      <trkpt lat="46.18719" lon="7.19446">
        <ele>681.98</ele>
        <time>2020-06-24T15:43:14.534Z</time>
      </trkpt>
      <trkpt lat="46.18706" lon="7.19448">
        <ele>680.18</ele>
        <time>2020-06-24T15:43:16.697Z</time>
      </trkpt>
      <trkpt lat="46.18701" lon="7.1945">
        <ele>679.16</ele>
        <time>2020-06-24T15:43:17.555Z</time>
      </trkpt>
      <trkpt lat="46.18701" lon="7.1945">
        <ele>678.44</ele>
        <time>2020-06-24T15:43:17.555Z</time>
      </trkpt>
      <trkpt lat="46.18701" lon="7.1945">
        <ele>678.44</ele>
        <time>2020-06-24T15:43:17.555Z</time>
      </trkpt>
      <trkpt lat="46.18694" lon="7.19454">
        <ele>677.71</ele>
        <time>2020-06-24T15:43:18.800Z</time>
      </trkpt>
      <trkpt lat="46.18682" lon="7.19462">
        <ele>675.34</ele>
        <time>2020-06-24T15:43:20.986Z</time>
      </trkpt>
      <trkpt lat="46.18672" lon="7.1947">
        <ele>673.88</ele>
        <time>2020-06-24T15:43:22.876Z</time>
      </trkpt>
      <trkpt lat="46.18657" lon="7.19479">
        <ele>671.29</ele>
        <time>2020-06-24T15:43:25.563Z</time>
      </trkpt>
      <trkpt lat="46.18653" lon="7.1948">
        <ele>670.69</ele>
        <time>2020-06-24T15:43:26.234Z</time>
      </trkpt>
      <trkpt lat="46.1865" lon="7.1948">
        <ele>670.34</ele>
        <time>2020-06-24T15:43:26.730Z</time>
      </trkpt>
      <trkpt lat="46.18644" lon="7.19475">
        <ele>669.6</ele>
        <time>2020-06-24T15:43:27.876Z</time>
      </trkpt>
      <trkpt lat="46.18627" lon="7.19449">
        <ele>666.66</ele>
        <time>2020-06-24T15:43:31.971Z</time>
      </trkpt>
      <trkpt lat="46.18624" lon="7.19446">
        <ele>666.43</ele>
        <time>2020-06-24T15:43:32.540Z</time>
      </trkpt>
      <trkpt lat="46.18621" lon="7.19441">
        <ele>666.04</ele>
        <time>2020-06-24T15:43:33.297Z</time>
      </trkpt>
      <trkpt lat="46.18617" lon="7.19439">
        <ele>665.47</ele>
        <time>2020-06-24T15:43:33.997Z</time>
      </trkpt>
      <trkpt lat="46.18612" lon="7.19438">
        <ele>664.74</ele>
        <time>2020-06-24T15:43:34.832Z</time>
      </trkpt>
      <trkpt lat="46.18608" lon="7.19438">
        <ele>664.38</ele>
        <time>2020-06-24T15:43:35.494Z</time>
      </trkpt>
      <trkpt lat="46.18609" lon="7.19455">
        <ele>662.65</ele>
        <time>2020-06-24T15:43:37.448Z</time>
      </trkpt>
      <trkpt lat="46.18611" lon="7.19468">
        <ele>661.95</ele>
        <time>2020-06-24T15:43:38.972Z</time>
      </trkpt>
      <trkpt lat="46.18614" lon="7.19482">
        <ele>661.49</ele>
        <time>2020-06-24T15:43:40.806Z</time>
      </trkpt>
      <trkpt lat="46.18619" lon="7.19494">
        <ele>660.78</ele>
        <time>2020-06-24T15:43:42.410Z</time>
      </trkpt>
      <trkpt lat="46.18625" lon="7.19505">
        <ele>659.91</ele>
        <time>2020-06-24T15:43:44.014Z</time>
      </trkpt>
      <trkpt lat="46.1863" lon="7.19515">
        <ele>658.85</ele>
        <time>2020-06-24T15:43:45.426Z</time>
      </trkpt>
      <trkpt lat="46.18635" lon="7.19521">
        <ele>657.07</ele>
        <time>2020-06-24T15:43:46.501Z</time>
      </trkpt>
      <trkpt lat="46.18642" lon="7.19526">
        <ele>656.39</ele>
        <time>2020-06-24T15:43:47.793Z</time>
      </trkpt>
      <trkpt lat="46.18651" lon="7.19531">
        <ele>655.36</ele>
        <time>2020-06-24T15:43:49.388Z</time>
      </trkpt>
      <trkpt lat="46.18662" lon="7.19539">
        <ele>654.23</ele>
        <time>2020-06-24T15:43:51.425Z</time>
      </trkpt>
      <trkpt lat="46.18667" lon="7.19544">
        <ele>653.65</ele>
        <time>2020-06-24T15:43:52.430Z</time>
      </trkpt>
      <trkpt lat="46.18679" lon="7.19563">
        <ele>651.83</ele>
        <time>2020-06-24T15:43:55.375Z</time>
      </trkpt>
      <trkpt lat="46.18683" lon="7.19569">
        <ele>651.45</ele>
        <time>2020-06-24T15:43:56.254Z</time>
      </trkpt>
      <trkpt lat="46.1869" lon="7.19588">
        <ele>650.68</ele>
        <time>2020-06-24T15:43:58.801Z</time>
      </trkpt>
      <trkpt lat="46.18696" lon="7.19603">
        <ele>650.39</ele>
        <time>2020-06-24T15:44:01.482Z</time>
      </trkpt>
      <trkpt lat="46.187" lon="7.19612">
        <ele>650.12</ele>
        <time>2020-06-24T15:44:02.937Z</time>
      </trkpt>
      <trkpt lat="46.18703" lon="7.19616">
        <ele>649.84</ele>
        <time>2020-06-24T15:44:03.612Z</time>
      </trkpt>
      <trkpt lat="46.18709" lon="7.19622">
        <ele>649.47</ele>
        <time>2020-06-24T15:44:04.870Z</time>
      </trkpt>
      <trkpt lat="46.18731" lon="7.19636">
        <ele>647.08</ele>
        <time>2020-06-24T15:44:08.846Z</time>
      </trkpt>
      <trkpt lat="46.18744" lon="7.19645">
        <ele>646.23</ele>
        <time>2020-06-24T15:44:11.166Z</time>
      </trkpt>
      <trkpt lat="46.18759" lon="7.19657">
        <ele>644.59</ele>
        <time>2020-06-24T15:44:14.002Z</time>
      </trkpt>
      <trkpt lat="46.18772" lon="7.19666">
        <ele>643.16</ele>
        <time>2020-06-24T15:44:16.386Z</time>
      </trkpt>
      <trkpt lat="46.18778" lon="7.19673">
        <ele>642</ele>
        <time>2020-06-24T15:44:17.662Z</time>
      </trkpt>
      <trkpt lat="46.18788" lon="7.19687">
        <ele>640.43</ele>
        <time>2020-06-24T15:44:19.965Z</time>
      </trkpt>
      <trkpt lat="46.18794" lon="7.19698">
        <ele>639.39</ele>
        <time>2020-06-24T15:44:21.569Z</time>
      </trkpt>
      <trkpt lat="46.18799" lon="7.19712">
        <ele>638.63</ele>
        <time>2020-06-24T15:44:23.373Z</time>
      </trkpt>
      <trkpt lat="46.18806" lon="7.19726">
        <ele>637.05</ele>
        <time>2020-06-24T15:44:25.350Z</time>
      </trkpt>
      <trkpt lat="46.18806" lon="7.1973">
        <ele>636.83</ele>
        <time>2020-06-24T15:44:25.808Z</time>
      </trkpt>
      <trkpt lat="46.18806" lon="7.19733">
        <ele>636.63</ele>
        <time>2020-06-24T15:44:26.152Z</time>
      </trkpt>
      <trkpt lat="46.1881" lon="7.19741">
        <ele>635.39</ele>
        <time>2020-06-24T15:44:27.281Z</time>
      </trkpt>
      <trkpt lat="46.18815" lon="7.19759">
        <ele>633.6</ele>
        <time>2020-06-24T15:44:29.502Z</time>
      </trkpt>
      <trkpt lat="46.18818" lon="7.1977">
        <ele>632.7</ele>
        <time>2020-06-24T15:44:30.856Z</time>
      </trkpt>
      <trkpt lat="46.1882" lon="7.19787">
        <ele>631.86</ele>
        <time>2020-06-24T15:44:32.830Z</time>
      </trkpt>
      <trkpt lat="46.18822" lon="7.19822">
        <ele>630.46</ele>
        <time>2020-06-24T15:44:36.787Z</time>
      </trkpt>
      <trkpt lat="46.18824" lon="7.19841">
        <ele>629.09</ele>
        <time>2020-06-24T15:44:38.987Z</time>
      </trkpt>
      <trkpt lat="46.18829" lon="7.19865">
        <ele>626.25</ele>
        <time>2020-06-24T15:44:41.857Z</time>
      </trkpt>
      <trkpt lat="46.18832" lon="7.19876">
        <ele>625.72</ele>
        <time>2020-06-24T15:44:43.115Z</time>
      </trkpt>
      <trkpt lat="46.18832" lon="7.19876">
        <ele>625.72</ele>
        <time>2020-06-24T15:44:43.115Z</time>
      </trkpt>
      <trkpt lat="46.18829" lon="7.19865">
        <ele>626.25</ele>
        <time>2020-06-24T15:44:52.354Z</time>
      </trkpt>
      <trkpt lat="46.18824" lon="7.19841">
        <ele>629.09</ele>
        <time>2020-06-24T15:45:31.380Z</time>
      </trkpt>
      <trkpt lat="46.18822" lon="7.19822">
        <ele>630.46</ele>
        <time>2020-06-24T15:45:52.158Z</time>
      </trkpt>
      <trkpt lat="46.1882" lon="7.19787">
        <ele>631.86</ele>
        <time>2020-06-24T15:46:18.244Z</time>
      </trkpt>
      <trkpt lat="46.18818" lon="7.1977">
        <ele>632.7</ele>
        <time>2020-06-24T15:46:32.290Z</time>
      </trkpt>
      <trkpt lat="46.18815" lon="7.19759">
        <ele>633.6</ele>
        <time>2020-06-24T15:46:46.036Z</time>
      </trkpt>
      <trkpt lat="46.1881" lon="7.19741">
        <ele>635.39</ele>
        <time>2020-06-24T15:47:16.184Z</time>
      </trkpt>
      <trkpt lat="46.18806" lon="7.19733">
        <ele>636.63</ele>
        <time>2020-06-24T15:47:31.550Z</time>
      </trkpt>
      <trkpt lat="46.18806" lon="7.1973">
        <ele>636.83</ele>
        <time>2020-06-24T15:47:34.590Z</time>
      </trkpt>
      <trkpt lat="46.18806" lon="7.19726">
        <ele>637.05</ele>
        <time>2020-06-24T15:47:38.088Z</time>
      </trkpt>
      <trkpt lat="46.18799" lon="7.19712">
        <ele>638.63</ele>
        <time>2020-06-24T15:48:04.491Z</time>
      </trkpt>
      <trkpt lat="46.18794" lon="7.19698">
        <ele>639.39</ele>
        <time>2020-06-24T15:48:17.258Z</time>
      </trkpt>
      <trkpt lat="46.18788" lon="7.19687">
        <ele>640.43</ele>
        <time>2020-06-24T15:48:33.081Z</time>
      </trkpt>
      <trkpt lat="46.18778" lon="7.19673">
        <ele>642</ele>
        <time>2020-06-24T15:48:57.192Z</time>
      </trkpt>
      <trkpt lat="46.18772" lon="7.19666">
        <ele>643.16</ele>
        <time>2020-06-24T15:49:14.539Z</time>
      </trkpt>
      <trkpt lat="46.18759" lon="7.19657">
        <ele>644.59</ele>
        <time>2020-06-24T15:49:36.230Z</time>
      </trkpt>
      <trkpt lat="46.18744" lon="7.19645">
        <ele>646.23</ele>
        <time>2020-06-24T15:50:01.173Z</time>
      </trkpt>
      <trkpt lat="46.18731" lon="7.19636">
        <ele>647.08</ele>
        <time>2020-06-24T15:50:16.789Z</time>
      </trkpt>
      <trkpt lat="46.18721" lon="7.1963">
        <ele>648.27</ele>
        <time>2020-06-24T15:50:34.962Z</time>
      </trkpt>
      <trkpt lat="46.1872" lon="7.1963">
        <ele>648.27</ele>
        <time>2020-06-24T15:50:35.545Z</time>
      </trkpt>
      <trkpt lat="46.18709" lon="7.19622">
        <ele>649.47</ele>
        <time>2020-06-24T15:50:53.766Z</time>
      </trkpt>
      <trkpt lat="46.18703" lon="7.19616">
        <ele>649.84</ele>
        <time>2020-06-24T15:51:01.241Z</time>
      </trkpt>
      <trkpt lat="46.187" lon="7.19612">
        <ele>650.12</ele>
        <time>2020-06-24T15:51:05.981Z</time>
      </trkpt>
      <trkpt lat="46.18696" lon="7.19603">
        <ele>650.39</ele>
        <time>2020-06-24T15:51:12.465Z</time>
      </trkpt>
      <trkpt lat="46.1869" lon="7.19588">
        <ele>650.68</ele>
        <time>2020-06-24T15:51:21.448Z</time>
      </trkpt>
      <trkpt lat="46.18683" lon="7.19569">
        <ele>651.45</ele>
        <time>2020-06-24T15:51:36.810Z</time>
      </trkpt>
      <trkpt lat="46.18679" lon="7.19563">
        <ele>651.83</ele>
        <time>2020-06-24T15:51:43.373Z</time>
      </trkpt>
      <trkpt lat="46.18667" lon="7.19544">
        <ele>653.65</ele>
        <time>2020-06-24T15:52:10.970Z</time>
      </trkpt>
      <trkpt lat="46.18662" lon="7.19539">
        <ele>654.23</ele>
        <time>2020-06-24T15:52:19.794Z</time>
      </trkpt>
      <trkpt lat="46.18651" lon="7.19531">
        <ele>655.36</ele>
        <time>2020-06-24T15:52:37.081Z</time>
      </trkpt>
      <trkpt lat="46.18642" lon="7.19526">
        <ele>656.39</ele>
        <time>2020-06-24T15:52:52.743Z</time>
      </trkpt>
      <trkpt lat="46.18635" lon="7.19521">
        <ele>657.07</ele>
        <time>2020-06-24T15:53:03.261Z</time>
      </trkpt>
      <trkpt lat="46.18634" lon="7.1952">
        <ele>657.96</ele>
        <time>2020-06-24T15:53:05.997Z</time>
      </trkpt>
      <trkpt lat="46.18634" lon="7.19519">
        <ele>657.96</ele>
        <time>2020-06-24T15:53:06.400Z</time>
      </trkpt>
      <trkpt lat="46.1863" lon="7.19515">
        <ele>658.85</ele>
        <time>2020-06-24T15:53:17.343Z</time>
      </trkpt>
      <trkpt lat="46.18625" lon="7.19505">
        <ele>659.91</ele>
        <time>2020-06-24T15:53:34.273Z</time>
      </trkpt>
      <trkpt lat="46.18619" lon="7.19494">
        <ele>660.78</ele>
        <time>2020-06-24T15:53:47.638Z</time>
      </trkpt>
      <trkpt lat="46.18614" lon="7.19482">
        <ele>661.49</ele>
        <time>2020-06-24T15:53:59.299Z</time>
      </trkpt>
      <trkpt lat="46.18611" lon="7.19468">
        <ele>661.95</ele>
        <time>2020-06-24T15:54:09.338Z</time>
      </trkpt>
      <trkpt lat="46.18609" lon="7.19455">
        <ele>662.65</ele>
        <time>2020-06-24T15:54:20.662Z</time>
      </trkpt>
      <trkpt lat="46.18608" lon="7.19438">
        <ele>664.38</ele>
        <time>2020-06-24T15:54:47.230Z</time>
      </trkpt>
      <trkpt lat="46.18588" lon="7.19429">
        <ele>662.98</ele>
        <time>2020-06-24T15:54:50.694Z</time>
      </trkpt>
      <trkpt lat="46.18582" lon="7.19426">
        <ele>662.28</ele>
        <time>2020-06-24T15:54:51.744Z</time>
      </trkpt>
      <trkpt lat="46.18588" lon="7.19432">
        <ele>662.81</ele>
        <time>2020-06-24T15:55:00.481Z</time>
      </trkpt>
      <trkpt lat="46.18598" lon="7.19439">
        <ele>662.7</ele>
        <time>2020-06-24T15:55:03.436Z</time>
      </trkpt>
      <trkpt lat="46.18599" lon="7.19443">
        <ele>662.24</ele>
        <time>2020-06-24T15:55:03.923Z</time>
      </trkpt>
      <trkpt lat="46.18599" lon="7.19447">
        <ele>661.23</ele>
        <time>2020-06-24T15:55:04.381Z</time>
      </trkpt>
      <trkpt lat="46.18597" lon="7.19451">
        <ele>660.08</ele>
        <time>2020-06-24T15:55:04.946Z</time>
      </trkpt>
      <trkpt lat="46.18594" lon="7.19453">
        <ele>657.27</ele>
        <time>2020-06-24T15:55:05.492Z</time>
      </trkpt>
      <trkpt lat="46.18579" lon="7.19461">
        <ele>654.47</ele>
        <time>2020-06-24T15:55:08.137Z</time>
      </trkpt>
      <trkpt lat="46.18561" lon="7.19469">
        <ele>649.12</ele>
        <time>2020-06-24T15:55:11.252Z</time>
      </trkpt>
      <trkpt lat="46.18554" lon="7.19472">
        <ele>647.04</ele>
        <time>2020-06-24T15:55:12.460Z</time>
      </trkpt>
      <trkpt lat="46.18543" lon="7.1948">
        <ele>643.69</ele>
        <time>2020-06-24T15:55:14.497Z</time>
      </trkpt>
      <trkpt lat="46.18537" lon="7.19484">
        <ele>643.07</ele>
        <time>2020-06-24T15:55:15.590Z</time>
      </trkpt>
      <trkpt lat="46.18524" lon="7.19495">
        <ele>638.06</ele>
        <time>2020-06-24T15:55:18.082Z</time>
      </trkpt>
      <trkpt lat="46.18511" lon="7.19502">
        <ele>635.99</ele>
        <time>2020-06-24T15:55:20.376Z</time>
      </trkpt>
      <trkpt lat="46.18511" lon="7.19502">
        <ele>635.99</ele>
        <time>2020-06-24T15:55:20.376Z</time>
      </trkpt>
      <trkpt lat="46.18507" lon="7.19505">
        <ele>633.92</ele>
        <time>2020-06-24T15:55:21.122Z</time>
      </trkpt>
      <trkpt lat="46.18486" lon="7.19512">
        <ele>630.25</ele>
        <time>2020-06-24T15:55:24.686Z</time>
      </trkpt>
      <trkpt lat="46.1848" lon="7.19513">
        <ele>629.44</ele>
        <time>2020-06-24T15:55:25.685Z</time>
      </trkpt>
      <trkpt lat="46.18471" lon="7.19515">
        <ele>627.36</ele>
        <time>2020-06-24T15:55:27.191Z</time>
      </trkpt>
      <trkpt lat="46.18466" lon="7.19518">
        <ele>626.88</ele>
        <time>2020-06-24T15:55:28.087Z</time>
      </trkpt>
      <trkpt lat="46.18461" lon="7.19522">
        <ele>626.11</ele>
        <time>2020-06-24T15:55:29.032Z</time>
      </trkpt>
      <trkpt lat="46.18457" lon="7.19518">
        <ele>625.72</ele>
        <time>2020-06-24T15:55:29.837Z</time>
      </trkpt>
      <trkpt lat="46.18449" lon="7.19514">
        <ele>624.82</ele>
        <time>2020-06-24T15:55:31.237Z</time>
      </trkpt>
      <trkpt lat="46.18445" lon="7.1951">
        <ele>624.46</ele>
        <time>2020-06-24T15:55:32.042Z</time>
      </trkpt>
      <trkpt lat="46.1844" lon="7.19509">
        <ele>624.25</ele>
        <time>2020-06-24T15:55:32.986Z</time>
      </trkpt>
      <trkpt lat="46.18435" lon="7.19507">
        <ele>623.24</ele>
        <time>2020-06-24T15:55:33.844Z</time>
      </trkpt>
      <trkpt lat="46.18428" lon="7.19504">
        <ele>622.09</ele>
        <time>2020-06-24T15:55:35.052Z</time>
      </trkpt>
      <trkpt lat="46.18422" lon="7.19501">
        <ele>621.29</ele>
        <time>2020-06-24T15:55:36.102Z</time>
      </trkpt>
      <trkpt lat="46.18416" lon="7.19497">
        <ele>620.38</ele>
        <time>2020-06-24T15:55:37.195Z</time>
      </trkpt>
      <trkpt lat="46.18404" lon="7.1949">
        <ele>619.38</ele>
        <time>2020-06-24T15:55:39.335Z</time>
      </trkpt>
      <trkpt lat="46.18404" lon="7.19489">
        <ele>617.84</ele>
        <time>2020-06-24T15:55:39.450Z</time>
      </trkpt>
      <trkpt lat="46.18399" lon="7.19487">
        <ele>617.29</ele>
        <time>2020-06-24T15:55:40.308Z</time>
      </trkpt>
      <trkpt lat="46.18396" lon="7.19484">
        <ele>616.73</ele>
        <time>2020-06-24T15:55:40.912Z</time>
      </trkpt>
      <trkpt lat="46.18394" lon="7.1948">
        <ele>616.41</ele>
        <time>2020-06-24T15:55:41.477Z</time>
      </trkpt>
      <trkpt lat="46.18389" lon="7.19472">
        <ele>615.06</ele>
        <time>2020-06-24T15:55:42.711Z</time>
      </trkpt>
      <trkpt lat="46.18385" lon="7.19462">
        <ele>613.33</ele>
        <time>2020-06-24T15:55:44.033Z</time>
      </trkpt>
      <trkpt lat="46.18381" lon="7.19454">
        <ele>611.68</ele>
        <time>2020-06-24T15:55:45.163Z</time>
      </trkpt>
      <trkpt lat="46.18378" lon="7.19447">
        <ele>610.09</ele>
        <time>2020-06-24T15:55:46.106Z</time>
      </trkpt>
      <trkpt lat="46.18375" lon="7.19443">
        <ele>608.64</ele>
        <time>2020-06-24T15:55:46.781Z</time>
      </trkpt>
      <trkpt lat="46.18372" lon="7.1944">
        <ele>607.76</ele>
        <time>2020-06-24T15:55:47.385Z</time>
      </trkpt>
      <trkpt lat="46.18367" lon="7.19437">
        <ele>606.47</ele>
        <time>2020-06-24T15:55:48.280Z</time>
      </trkpt>
      <trkpt lat="46.18361" lon="7.19435">
        <ele>605</ele>
        <time>2020-06-24T15:55:49.299Z</time>
      </trkpt>
      <trkpt lat="46.18356" lon="7.19433">
        <ele>604.14</ele>
        <time>2020-06-24T15:55:50.157Z</time>
      </trkpt>
      <trkpt lat="46.18348" lon="7.19427">
        <ele>600.75</ele>
        <time>2020-06-24T15:55:51.648Z</time>
      </trkpt>
      <trkpt lat="46.18342" lon="7.19423">
        <ele>598.64</ele>
        <time>2020-06-24T15:55:52.741Z</time>
      </trkpt>
      <trkpt lat="46.18338" lon="7.19421">
        <ele>597.56</ele>
        <time>2020-06-24T15:55:53.441Z</time>
      </trkpt>
      <trkpt lat="46.18333" lon="7.19421">
        <ele>596.05</ele>
        <time>2020-06-24T15:55:54.268Z</time>
      </trkpt>
      <trkpt lat="46.18329" lon="7.19422">
        <ele>594.93</ele>
        <time>2020-06-24T15:55:54.939Z</time>
      </trkpt>
      <trkpt lat="46.18325" lon="7.19423">
        <ele>594.04</ele>
        <time>2020-06-24T15:55:55.611Z</time>
      </trkpt>
      <trkpt lat="46.18322" lon="7.19425">
        <ele>593.05</ele>
        <time>2020-06-24T15:55:56.157Z</time>
      </trkpt>
      <trkpt lat="46.18317" lon="7.1943">
        <ele>591.63</ele>
        <time>2020-06-24T15:55:57.163Z</time>
      </trkpt>
      <trkpt lat="46.1831" lon="7.19437">
        <ele>589.73</ele>
        <time>2020-06-24T15:55:58.571Z</time>
      </trkpt>
      <trkpt lat="46.18308" lon="7.19438">
        <ele>589.26</ele>
        <time>2020-06-24T15:55:58.921Z</time>
      </trkpt>
      <trkpt lat="46.18303" lon="7.1944">
        <ele>588.04</ele>
        <time>2020-06-24T15:55:59.779Z</time>
      </trkpt>
      <trkpt lat="46.18291" lon="7.19445">
        <ele>584.92</ele>
        <time>2020-06-24T15:56:01.845Z</time>
      </trkpt>
      <trkpt lat="46.18278" lon="7.19451">
        <ele>582.06</ele>
        <time>2020-06-24T15:56:04.102Z</time>
      </trkpt>
      <trkpt lat="46.18271" lon="7.19453">
        <ele>580.1</ele>
        <time>2020-06-24T15:56:05.283Z</time>
      </trkpt>
      <trkpt lat="46.18264" lon="7.19454">
        <ele>578.13</ele>
        <time>2020-06-24T15:56:06.446Z</time>
      </trkpt>
      <trkpt lat="46.1826" lon="7.19454">
        <ele>576.76</ele>
        <time>2020-06-24T15:56:07.108Z</time>
      </trkpt>
      <trkpt lat="46.18256" lon="7.19454">
        <ele>575.35</ele>
        <time>2020-06-24T15:56:07.769Z</time>
      </trkpt>
      <trkpt lat="46.18248" lon="7.19451">
        <ele>572.5</ele>
        <time>2020-06-24T15:56:09.136Z</time>
      </trkpt>
      <trkpt lat="46.18241" lon="7.19448">
        <ele>569.9</ele>
        <time>2020-06-24T15:56:10.344Z</time>
      </trkpt>
      <trkpt lat="46.18225" lon="7.1944">
        <ele>564.35</ele>
        <time>2020-06-24T15:56:13.144Z</time>
      </trkpt>
      <trkpt lat="46.18224" lon="7.19444">
        <ele>564.06</ele>
        <time>2020-06-24T15:56:13.631Z</time>
      </trkpt>
      <trkpt lat="46.18222" lon="7.19439">
        <ele>563.54</ele>
        <time>2020-06-24T15:56:14.293Z</time>
      </trkpt>
      <trkpt lat="46.1822" lon="7.19436">
        <ele>563.17</ele>
        <time>2020-06-24T15:56:14.769Z</time>
      </trkpt>
      <trkpt lat="46.18217" lon="7.19434">
        <ele>562.74</ele>
        <time>2020-06-24T15:56:15.316Z</time>
      </trkpt>
      <trkpt lat="46.18214" lon="7.19432">
        <ele>562.05</ele>
        <time>2020-06-24T15:56:15.862Z</time>
      </trkpt>
      <trkpt lat="46.182" lon="7.19426">
        <ele>555.97</ele>
        <time>2020-06-24T15:56:18.278Z</time>
      </trkpt>
      <trkpt lat="46.18192" lon="7.19424">
        <ele>552.68</ele>
        <time>2020-06-24T15:56:19.621Z</time>
      </trkpt>
      <trkpt lat="46.18187" lon="7.19422">
        <ele>550.13</ele>
        <time>2020-06-24T15:56:20.479Z</time>
      </trkpt>
      <trkpt lat="46.18184" lon="7.1942">
        <ele>549.07</ele>
        <time>2020-06-24T15:56:21.025Z</time>
      </trkpt>
      <trkpt lat="46.18181" lon="7.19419">
        <ele>548.13</ele>
        <time>2020-06-24T15:56:21.535Z</time>
      </trkpt>
      <trkpt lat="46.18178" lon="7.19419">
        <ele>547</ele>
        <time>2020-06-24T15:56:22.031Z</time>
      </trkpt>
      <trkpt lat="46.18174" lon="7.19419">
        <ele>545.2</ele>
        <time>2020-06-24T15:56:22.692Z</time>
      </trkpt>
      <trkpt lat="46.18169" lon="7.19421">
        <ele>543.04</ele>
        <time>2020-06-24T15:56:23.550Z</time>
      </trkpt>
      <trkpt lat="46.18167" lon="7.19423">
        <ele>541.38</ele>
        <time>2020-06-24T15:56:23.953Z</time>
      </trkpt>
      <trkpt lat="46.18163" lon="7.19428">
        <ele>539.95</ele>
        <time>2020-06-24T15:56:24.828Z</time>
      </trkpt>
      <trkpt lat="46.1816" lon="7.1943">
        <ele>538.58</ele>
        <time>2020-06-24T15:56:25.374Z</time>
      </trkpt>
      <trkpt lat="46.18152" lon="7.19437">
        <ele>535.76</ele>
        <time>2020-06-24T15:56:26.921Z</time>
      </trkpt>
      <trkpt lat="46.18145" lon="7.19441">
        <ele>532.55</ele>
        <time>2020-06-24T15:56:28.166Z</time>
      </trkpt>
      <trkpt lat="46.18141" lon="7.19443">
        <ele>531.89</ele>
        <time>2020-06-24T15:56:28.866Z</time>
      </trkpt>
      <trkpt lat="46.18137" lon="7.19445">
        <ele>530.64</ele>
        <time>2020-06-24T15:56:29.567Z</time>
      </trkpt>
      <trkpt lat="46.1813" lon="7.19449">
        <ele>528.1</ele>
        <time>2020-06-24T15:56:30.812Z</time>
      </trkpt>
      <trkpt lat="46.18127" lon="7.19451">
        <ele>527</ele>
        <time>2020-06-24T15:56:31.358Z</time>
      </trkpt>
      <trkpt lat="46.18116" lon="7.19455">
        <ele>523.65</ele>
        <time>2020-06-24T15:56:33.234Z</time>
      </trkpt>
      <trkpt lat="46.18109" lon="7.19457">
        <ele>521.46</ele>
        <time>2020-06-24T15:56:34.415Z</time>
      </trkpt>
      <trkpt lat="46.18096" lon="7.1946">
        <ele>517.68</ele>
        <time>2020-06-24T15:56:36.592Z</time>
      </trkpt>
      <trkpt lat="46.18086" lon="7.19462">
        <ele>514.76</ele>
        <time>2020-06-24T15:56:38.262Z</time>
      </trkpt>
      <trkpt lat="46.18083" lon="7.19463">
        <ele>513.85</ele>
        <time>2020-06-24T15:56:38.771Z</time>
      </trkpt>
      <trkpt lat="46.18081" lon="7.19462">
        <ele>513.38</ele>
        <time>2020-06-24T15:56:39.121Z</time>
      </trkpt>
      <trkpt lat="46.18078" lon="7.1946">
        <ele>512.61</ele>
        <time>2020-06-24T15:56:39.667Z</time>
      </trkpt>
      <trkpt lat="46.18071" lon="7.19452">
        <ele>510.53</ele>
        <time>2020-06-24T15:56:41.144Z</time>
      </trkpt>
      <trkpt lat="46.18063" lon="7.19443">
        <ele>508.31</ele>
        <time>2020-06-24T15:56:42.821Z</time>
      </trkpt>
      <trkpt lat="46.18054" lon="7.19432">
        <ele>505.63</ele>
        <time>2020-06-24T15:56:44.771Z</time>
      </trkpt>
      <trkpt lat="46.18052" lon="7.19427">
        <ele>503.85</ele>
        <time>2020-06-24T15:56:45.432Z</time>
      </trkpt>
      <trkpt lat="46.18051" lon="7.19426">
        <ele>503.85</ele>
        <time>2020-06-24T15:56:46.142Z</time>
      </trkpt>
      <trkpt lat="46.18042" lon="7.19412">
        <ele>502.07</ele>
        <time>2020-06-24T15:56:48.329Z</time>
      </trkpt>
      <trkpt lat="46.1804" lon="7.19408">
        <ele>501.66</ele>
        <time>2020-06-24T15:56:48.894Z</time>
      </trkpt>
      <trkpt lat="46.18036" lon="7.19405">
        <ele>500.84</ele>
        <time>2020-06-24T15:56:49.640Z</time>
      </trkpt>
      <trkpt lat="46.18032" lon="7.19402">
        <ele>500.03</ele>
        <time>2020-06-24T15:56:50.385Z</time>
      </trkpt>
      <trkpt lat="46.18026" lon="7.19399">
        <ele>499.11</ele>
        <time>2020-06-24T15:56:51.436Z</time>
      </trkpt>
      <trkpt lat="46.18015" lon="7.19395">
        <ele>497.52</ele>
        <time>2020-06-24T15:56:53.312Z</time>
      </trkpt>
      <trkpt lat="46.17986" lon="7.19397">
        <ele>494.18</ele>
        <time>2020-06-24T15:56:58.114Z</time>
      </trkpt>
      <trkpt lat="46.17978" lon="7.19398">
        <ele>493.23</ele>
        <time>2020-06-24T15:56:59.442Z</time>
      </trkpt>
      <trkpt lat="46.17968" lon="7.19397">
        <ele>492.71</ele>
        <time>2020-06-24T15:57:01.152Z</time>
      </trkpt>
      <trkpt lat="46.17949" lon="7.19393">
        <ele>491.36</ele>
        <time>2020-06-24T15:57:04.328Z</time>
      </trkpt>
      <trkpt lat="46.17945" lon="7.19389">
        <ele>490.92</ele>
        <time>2020-06-24T15:57:05.133Z</time>
      </trkpt>
      <trkpt lat="46.17924" lon="7.19414">
        <ele>489.19</ele>
        <time>2020-06-24T15:57:09.356Z</time>
      </trkpt>
      <trkpt lat="46.17912" lon="7.19429">
        <ele>488.23</ele>
        <time>2020-06-24T15:57:11.878Z</time>
      </trkpt>
      <trkpt lat="46.17882" lon="7.19462">
        <ele>486.58</ele>
        <time>2020-06-24T15:57:18.793Z</time>
      </trkpt>
      <trkpt lat="46.1787" lon="7.19478">
        <ele>485.93</ele>
        <time>2020-06-24T15:57:21.901Z</time>
      </trkpt>
      <trkpt lat="46.17862" lon="7.19487">
        <ele>485.36</ele>
        <time>2020-06-24T15:57:23.569Z</time>
      </trkpt>
      <trkpt lat="46.17849" lon="7.19504">
        <ele>484.68</ele>
        <time>2020-06-24T15:57:26.939Z</time>
      </trkpt>
      <trkpt lat="46.17835" lon="7.19521">
        <ele>484.06</ele>
        <time>2020-06-24T15:57:30.626Z</time>
      </trkpt>
      <trkpt lat="46.17826" lon="7.19532">
        <ele>483.42</ele>
        <time>2020-06-24T15:57:32.598Z</time>
      </trkpt>
      <trkpt lat="46.17818" lon="7.19543">
        <ele>483.31</ele>
        <time>2020-06-24T15:57:35.533Z</time>
      </trkpt>
      <trkpt lat="46.17811" lon="7.19552">
        <ele>482.94</ele>
        <time>2020-06-24T15:57:37.322Z</time>
      </trkpt>
      <trkpt lat="46.17808" lon="7.19559">
        <ele>482.82</ele>
        <time>2020-06-24T15:57:38.642Z</time>
      </trkpt>
      <trkpt lat="46.17804" lon="7.19566">
        <ele>482.72</ele>
        <time>2020-06-24T15:57:40.190Z</time>
      </trkpt>
      <trkpt lat="46.17801" lon="7.19574">
        <ele>482.44</ele>
        <time>2020-06-24T15:57:41.337Z</time>
      </trkpt>
      <trkpt lat="46.17796" lon="7.19589">
        <ele>482.39</ele>
        <time>2020-06-24T15:57:47.640Z</time>
      </trkpt>
      <trkpt lat="46.17791" lon="7.19597">
        <ele>482.61</ele>
        <time>2020-06-24T15:57:53.602Z</time>
      </trkpt>
      <trkpt lat="46.17788" lon="7.19602">
        <ele>482.96</ele>
        <time>2020-06-24T15:57:59.250Z</time>
      </trkpt>
      <trkpt lat="46.17786" lon="7.19597">
        <ele>482.96</ele>
        <time>2020-06-24T15:58:01.581Z</time>
      </trkpt>
      <trkpt lat="46.17781" lon="7.19586">
        <ele>483.17</ele>
        <time>2020-06-24T15:58:08.316Z</time>
      </trkpt>
      <trkpt lat="46.17781" lon="7.19584">
        <ele>483.17</ele>
        <time>2020-06-24T15:58:09.124Z</time>
      </trkpt>
      <trkpt lat="46.17778" lon="7.19589">
        <ele>483.25</ele>
        <time>2020-06-24T15:58:12.304Z</time>
      </trkpt>
      <trkpt lat="46.17773" lon="7.19603">
        <ele>482.93</ele>
        <time>2020-06-24T15:58:14.608Z</time>
      </trkpt>
      <trkpt lat="46.17769" lon="7.19616">
        <ele>481.22</ele>
        <time>2020-06-24T15:58:16.238Z</time>
      </trkpt>
      <trkpt lat="46.17766" lon="7.19624">
        <ele>480.26</ele>
        <time>2020-06-24T15:58:17.280Z</time>
      </trkpt>
      <trkpt lat="46.17763" lon="7.19629">
        <ele>479.78</ele>
        <time>2020-06-24T15:58:18.037Z</time>
      </trkpt>
      <trkpt lat="46.17763" lon="7.19629">
        <ele>479.78</ele>
        <time>2020-06-24T15:58:18.037Z</time>
      </trkpt>
      <trkpt lat="46.17759" lon="7.19639">
        <ele>479.78</ele>
        <time>2020-06-24T15:58:22.700Z</time>
      </trkpt>
      <trkpt lat="46.17757" lon="7.19644">
        <ele>479.3</ele>
        <time>2020-06-24T15:58:23.362Z</time>
      </trkpt>
      <trkpt lat="46.17751" lon="7.19659">
        <ele>478.82</ele>
        <time>2020-06-24T15:58:25.639Z</time>
      </trkpt>
      <trkpt lat="46.17746" lon="7.19673">
        <ele>478.51</ele>
        <time>2020-06-24T15:58:27.967Z</time>
      </trkpt>
      <trkpt lat="46.1773" lon="7.1972">
        <ele>477.1</ele>
        <time>2020-06-24T15:58:34.927Z</time>
      </trkpt>
      <trkpt lat="46.17723" lon="7.19741">
        <ele>476.72</ele>
        <time>2020-06-24T15:58:38.560Z</time>
      </trkpt>
      <trkpt lat="46.17712" lon="7.19773">
        <ele>475.88</ele>
        <time>2020-06-24T15:58:43.544Z</time>
      </trkpt>
      <trkpt lat="46.17706" lon="7.19788">
        <ele>475.83</ele>
        <time>2020-06-24T15:58:50.118Z</time>
      </trkpt>
      <trkpt lat="46.177" lon="7.19807">
        <ele>475.25</ele>
        <time>2020-06-24T15:58:52.862Z</time>
      </trkpt>
      <trkpt lat="46.17675" lon="7.19881">
        <ele>473.55</ele>
        <time>2020-06-24T15:59:04.848Z</time>
      </trkpt>
      <trkpt lat="46.17666" lon="7.19903">
        <ele>473.19</ele>
        <time>2020-06-24T15:59:08.980Z</time>
      </trkpt>
      <trkpt lat="46.17658" lon="7.19926">
        <ele>472.64</ele>
        <time>2020-06-24T15:59:12.686Z</time>
      </trkpt>
      <trkpt lat="46.17642" lon="7.19977">
        <ele>472.06</ele>
        <time>2020-06-24T15:59:22.346Z</time>
      </trkpt>
      <trkpt lat="46.17638" lon="7.19988">
        <ele>471.77</ele>
        <time>2020-06-24T15:59:24.084Z</time>
      </trkpt>
      <trkpt lat="46.17624" lon="7.19963">
        <ele>471.07</ele>
        <time>2020-06-24T15:59:28.686Z</time>
      </trkpt>
      <trkpt lat="46.17607" lon="7.19932">
        <ele>470.52</ele>
        <time>2020-06-24T15:59:35.099Z</time>
      </trkpt>
      <trkpt lat="46.17599" lon="7.19917">
        <ele>470.34</ele>
        <time>2020-06-24T15:59:38.417Z</time>
      </trkpt>
      <trkpt lat="46.17598" lon="7.19917">
        <ele>470.34</ele>
        <time>2020-06-24T15:59:39.000Z</time>
      </trkpt>
      <trkpt lat="46.17594" lon="7.19909">
        <ele>470.15</ele>
        <time>2020-06-24T15:59:40.468Z</time>
      </trkpt>
      <trkpt lat="46.1757" lon="7.19863">
        <ele>468.93</ele>
        <time>2020-06-24T15:59:48.785Z</time>
      </trkpt>
      <trkpt lat="46.17537" lon="7.19802">
        <ele>467.96</ele>
        <time>2020-06-24T16:00:01.639Z</time>
      </trkpt>
      <trkpt lat="46.17522" lon="7.19776">
        <ele>468.16</ele>
        <time>2020-06-24T16:00:16.463Z</time>
      </trkpt>
      <trkpt lat="46.17499" lon="7.19734">
        <ele>467.96</ele>
        <time>2020-06-24T16:00:36.434Z</time>
      </trkpt>
      <trkpt lat="46.17484" lon="7.19707">
        <ele>467.9</ele>
        <time>2020-06-24T16:00:49.895Z</time>
      </trkpt>
      <trkpt lat="46.17478" lon="7.19697">
        <ele>467.87</ele>
        <time>2020-06-24T16:00:54.983Z</time>
      </trkpt>
    </trkseg>
  </trk>
</gpx>